Another Hard Day at the Office Weather Stats

 
 
 

High monthly outside Temperature, 12.8 , C
Low monthly outside Temperature, -1.9 , C
High yearly outside Temperature, 12.8 , C
Low yearly outside Temperature, -1.9 , C

Low monthly barometer, 980.5 , mb
High monthly barometer, 1036.6 , mb
Low yearly barometer, 980.5 , mb
High yearly barometer 1036.6 , mb

High wind speed, 29.0 , mph
Time of High wind speed, 11:59 , mph
High monthly wind speed, 55.0 , mph
High yearly wind speed, 55.0 , mph

 

 




3125
                    Temp     Hi    Low   Out    Dew  Wind  Wind   Wind    Hi    Hi   Wind   Heat    THW                Rain    Heat    Cool    In     In    In     In     In   In Air  Wind  Wind    ISS   Arc.
  Date    Time     Out   Temp   Temp   Hum    Pt. Speed   Dir    Run Speed   Dir  Chill  Index  Index   Bar    Rain  Rate    D-D     D-D    Temp   Hum    Dew   Heat    EMC Density  Samp   Tx   Recept  Int.
---------------------------------------------------------------------------------------------------------------------------------------------------------------------------------------------------------------
28/01/15   0:05    7.4    7.4    7.3    91    6.0  13.0   WSW   1.08  17.0   WSW    3.6    7.4    3.7  1016.5  0.00   0.0   0.038   0.000   20.0    38    5.2   18.6   7.55 1.1980    115    1    100.0    5 
28/01/15   0:10    7.4    7.4    7.4    91    6.0  14.0    SW   1.17  17.0    SW    3.4    7.4    3.5  1016.6  0.00   0.0   0.038   0.000   19.9    38    5.2   18.5   7.55 1.1984    117    1    100.0    5 
28/01/15   0:15    7.4    7.4    7.4    91    6.0  14.0    SW   1.17  21.0   WSW    3.4    7.4    3.5  1016.5  0.00   0.0   0.038   0.000   19.9    38    5.2   18.5   7.55 1.1983    117    1    100.0    5 
28/01/15   0:20    7.4    7.4    7.4    91    6.1  16.0   WSW   1.33  21.0    SW    3.1    7.5    3.2  1016.5  0.00   0.0   0.038   0.000   19.9    38    5.2   18.5   7.55 1.1983    117    1    100.0    5 
28/01/15   0:25    7.4    7.5    7.4    91    6.1  16.0   WSW   1.33  22.0   WSW    3.1    7.5    3.2  1016.4  0.00   0.0   0.038   0.000   19.9    38    5.1   18.4   7.55 1.1984    117    1    100.0    5 
28/01/15   0:30    7.4    7.4    7.4    91    6.1  16.0   WSW   1.33  20.0    SW    3.1    7.5    3.2  1016.1  0.00   0.0   0.038   0.000   19.9    39    5.5   18.5   7.69 1.1978    117    1    100.0    5 
28/01/15   0:35    7.4    7.5    7.4    91    6.1  16.0   WSW   1.33  21.0   WSW    3.1    7.5    3.2  1016.0  0.00   0.0   0.038   0.000   19.8    39    5.5   18.4   7.70 1.1980    117    1    100.0    5 
28/01/15   0:40    7.4    7.5    7.4    91    6.1  18.0   WSW   1.50  22.0   WSW    2.8    7.5    2.9  1016.0  0.00   0.0   0.038   0.000   19.8    39    5.4   18.3   7.70 1.1983    118    1    100.0    5 
28/01/15   0:45    7.4    7.4    7.4    91    6.1  18.0   WSW   1.50  21.0   WSW    2.8    7.5    2.9  1015.9  0.00   0.0   0.038   0.000   19.7    39    5.4   18.3   7.70 1.1984    117    1    100.0    5 
28/01/15   0:50    7.4    7.4    7.4    91    6.0  15.0   WSW   1.25  19.0   WSW    3.2    7.4    3.3  1016.0  0.00   0.0   0.038   0.000   19.7    39    5.4   18.3   7.70 1.1984    117    1    100.0    5 
28/01/15   0:55    7.4    7.4    7.4    91    6.0  15.0   WSW   1.25  20.0   WSW    3.2    7.4    3.3  1016.0  0.00   0.0   0.038   0.000   19.7    39    5.3   18.2   7.70 1.1987    115    1    100.0    5 
28/01/15   1:00    7.4    7.4    7.4    90    5.9  14.0   WSW   1.17  20.0   WSW    3.5    7.5    3.6  1016.0  0.00   0.0   0.038   0.000   19.6    39    5.3   18.2   7.70 1.1990    116    1    100.0    5 
28/01/15   1:05    7.4    7.4    7.4    90    5.9  11.0   WSW   0.92  16.0     W    4.2    7.5    4.2  1015.8  0.00   0.0   0.038   0.000   19.7    40    5.7   18.3   7.80 1.1983    116    1    100.0    5 
28/01/15   1:10    7.4    7.5    7.4    90    5.9  11.0   WSW   0.92  18.0   WSW    4.2    7.5    4.2  1015.7  0.00   0.0   0.038   0.000   19.7    40    5.7   18.3   7.80 1.1982    117    1    100.0    5 
28/01/15   1:15    7.5    7.5    7.4    90    6.0  12.0   WSW   1.00  18.0   WSW    4.0    7.6    4.1  1015.5  0.00   0.0   0.038   0.000   19.7    40    5.7   18.3   7.80 1.1979    117    1    100.0    5 
28/01/15   1:20    7.4    7.5    7.4    91    6.1  13.0   WSW   1.08  18.0   WSW    3.7    7.5    3.7  1015.2  0.00   0.0   0.038   0.000   19.7    40    5.7   18.3   7.80 1.1976    117    1    100.0    5 
28/01/15   1:25    7.4    7.4    7.4    92    6.2  14.0   WSW   1.17  17.0   WSW    3.5    7.6    3.6  1015.2  0.00   0.0   0.038   0.000   19.7    40    5.7   18.3   7.80 1.1975    117    1    100.0    5 
28/01/15   1:30    7.4    7.4    7.4    93    6.3  14.0   WSW   1.17  17.0   WSW    3.4    7.5    3.6  1015.1  0.00   0.0   0.038   0.000   19.7    40    5.7   18.4   7.80 1.1971    117    1    100.0    5 
28/01/15   1:35    7.3    7.4    7.3    94    6.4  15.0   WSW   1.25  18.0   WSW    3.1    7.4    3.2  1015.0  0.00   0.0   0.038   0.000   19.7    40    5.7   18.4   7.80 1.1970    116    1    100.0    5 
28/01/15   1:40    7.2    7.3    7.2    94    6.3  14.0   WSW   1.17  19.0   WSW    3.2    7.3    3.3  1014.9  0.00   0.0   0.039   0.000   19.8    40    5.8   18.4   7.80 1.1966    117    1    100.0    5 
28/01/15   1:45    7.2    7.2    7.1    94    6.3  15.0   WSW   1.25  19.0   WSW    3.0    7.3    3.1  1014.7  0.00   0.0   0.039   0.000   19.8    40    5.8   18.5   7.80 1.1962    118    1    100.0    5 
28/01/15   1:50    7.2    7.2    7.2    95    6.5  17.0   WSW   1.42  20.0   WSW    2.7    7.3    2.8  1014.5  0.00   0.0   0.039   0.000   19.9    41    6.2   18.6   7.95 1.1954    117    1    100.0    5 
28/01/15   1:55    7.3    7.3    7.3    95    6.6  17.0   WSW   1.42  23.0   WSW    2.8    7.4    2.9  1014.4  0.00   0.0   0.038   0.000   19.9    41    6.3   18.7   7.95 1.1950    117    1    100.0    5 
28/01/15   2:00    7.4    7.4    7.3    95    6.6  19.0   WSW   1.58  23.0   WSW    2.6    7.5    2.7  1014.3  0.00   0.0   0.038   0.000   19.9    41    6.3   18.7   7.95 1.1949    117    1    100.0    5 
28/01/15   2:05    7.3    7.4    7.3    95    6.6  17.0   WSW   1.42  20.0   WSW    2.8    7.4    2.9  1014.0  0.00   0.0   0.038   0.000   20.0    41    6.3   18.7   7.95 1.1942    116    1    100.0    5 
28/01/15   2:10    7.4    7.4    7.3    95    6.6  15.0   WSW   1.25  18.0   WSW    3.2    7.5    3.3  1013.7  0.00   0.0   0.038   0.000   20.1    41    6.4   18.8   7.95 1.1936    117    1    100.0    5 
28/01/15   2:15    7.4    7.5    7.4    95    6.7  17.0   WSW   1.42  21.0   WSW    3.0    7.6    3.1  1013.6  0.00   0.0   0.038   0.000   20.1    41    6.4   18.8   7.95 1.1932    117    1    100.0    5 
28/01/15   2:20    7.5    7.5    7.4    95    6.8  17.0   WSW   1.42  22.0   WSW    3.1    7.7    3.2  1013.5  0.00   0.0   0.038   0.000   20.1    41    6.4   18.8   7.95 1.1931    117    1    100.0    5 
28/01/15   2:25    7.6    7.6    7.5    94    6.7  16.0   WSW   1.33  20.0   WSW    3.3    7.7    3.4  1013.2  0.00   0.0   0.037   0.000   20.2    41    6.5   18.9   7.95 1.1925    116    1    100.0    5 
28/01/15   2:30    7.6    7.6    7.6    94    6.7  15.0   WSW   1.25  23.0   WSW    3.5    7.7    3.6  1013.0  0.00   0.0   0.037   0.000   20.2    41    6.5   18.9   7.95 1.1920    117    1    100.0    5 
28/01/15   2:35    7.7    7.7    7.6    94    6.8  16.0   WSW   1.33  22.0   WSW    3.4    7.8    3.5  1012.9  0.00   0.0   0.037   0.000   20.3    41    6.6   19.0   7.95 1.1916    117    1    100.0    5 
28/01/15   2:40    7.8    7.8    7.7    94    6.9  17.0   WSW   1.42  24.0   WSW    3.4    7.9    3.6  1013.0  0.00   0.0   0.037   0.000   20.3    41    6.6   19.1   7.95 1.1915    116    1    100.0    5 
28/01/15   2:45    7.8    7.8    7.7    93    6.7  18.0   WSW   1.50  21.0   WSW    3.2    7.9    3.3  1012.8  0.00   0.0   0.037   0.000   20.4    41    6.7   19.1   7.95 1.1910    118    1    100.0    5 
28/01/15   2:50    7.8    7.8    7.8    93    6.8  18.0   WSW   1.50  22.0   WSW    3.3    7.9    3.4  1012.8  0.00   0.0   0.036   0.000   20.4    41    6.7   19.2   7.95 1.1907    116    1    100.0    5 
28/01/15   2:55    7.9    7.9    7.8    93    6.8  19.0   WSW   1.58  23.0   WSW    3.2    8.0    3.3  1012.7  0.00   0.0   0.036   0.000   20.4    41    6.7   19.2   7.95 1.1905    117    1    100.0    5 
28/01/15   3:00    7.9    7.9    7.9    93    6.8  18.0   WSW   1.50  22.0   WSW    3.3    8.0    3.4  1012.4  0.00   0.0   0.036   0.000   20.5    41    6.8   19.2   7.95 1.1900    117    1    100.0    5 
28/01/15   3:05    7.9    7.9    7.9    93    6.8  17.0   WSW   1.42  24.0   WSW    3.5    8.0    3.6  1012.3  0.00   0.0   0.036   0.000   20.6    41    6.8   19.3   7.95 1.1896    116    1    100.0    5 
28/01/15   3:10    7.9    7.9    7.9    93    6.8  16.0    SW   1.33  20.0    SW    3.6    8.0    3.7  1012.1  0.00   0.0   0.036   0.000   20.6    41    6.8   19.3   7.95 1.1893    117    1    100.0    5 
28/01/15   3:15    7.9    7.9    7.9    93    6.9  17.0    SW   1.42  22.0    SW    3.6    8.1    3.7  1012.0  0.00   0.0   0.036   0.000   20.6    41    6.8   19.3   7.95 1.1892    117    1    100.0    5 
28/01/15   3:20    7.9    7.9    7.9    94    7.0  16.0    SW   1.33  20.0    SW    3.6    8.1    3.8  1011.8  0.00   0.0   0.036   0.000   20.6    41    6.9   19.3   7.95 1.1887    117    1    100.0    5 
28/01/15   3:25    7.9    7.9    7.9    94    7.0  17.0    SW   1.42  20.0    SW    3.5    8.1    3.7  1011.6  0.00   0.0   0.036   0.000   20.6    41    6.9   19.3   7.95 1.1885    115    1    100.0    5 
28/01/15   3:30    7.9    8.0    7.9    94    7.0  19.0    SW   1.58  22.0    SW    3.3    8.1    3.4  1011.3  0.00   0.0   0.036   0.000   20.6    41    6.9   19.3   7.95 1.1881    116    1    100.0    5 
28/01/15   3:35    8.0    8.0    7.9    94    7.1  19.0    SW   1.58  22.0    SW    3.3    8.2    3.5  1011.3  0.00   0.0   0.036   0.000   20.6    41    6.9   19.3   7.95 1.1881    117    1    100.0    5 
28/01/15   3:40    8.0    8.0    7.9    95    7.2  18.0    SW   1.50  23.0    SW    3.4    8.2    3.6  1011.2  0.00   0.0   0.036   0.000   20.6    41    6.9   19.3   7.95 1.1880    117    1    100.0    5 
28/01/15   3:45    8.1    8.1    8.0    95    7.3  19.0    SW   1.58  22.0    SW    3.4    8.2    3.6  1011.0  0.00   0.0   0.036   0.000   20.6    41    6.9   19.3   7.95 1.1878    117    1    100.0    5 
28/01/15   3:50    8.1    8.1    8.0    95    7.3  19.0    SW   1.58  22.0    SW    3.4    8.2    3.6  1010.8  0.00   0.0   0.036   0.000   20.6    41    6.9   19.3   7.95 1.1875    117    1    100.0    5 
28/01/15   3:55    8.1    8.1    8.1    95    7.4  19.0    SW   1.58  23.0   WSW    3.4    8.3    3.6  1010.8  0.00   0.0   0.035   0.000   20.6    41    6.9   19.3   7.95 1.1875    117    1    100.0    5 
28/01/15   4:00    8.2    8.2    8.1    95    7.4  20.0    SW   1.67  24.0   WSW    3.4    8.3    3.6  1010.6  0.00   0.0   0.035   0.000   20.6    41    6.9   19.3   7.95 1.1873    117    1    100.0    5 
28/01/15   4:05    8.2    8.2    8.1    95    7.4  20.0    SW   1.67  23.0    SW    3.4    8.3    3.6  1010.5  0.00   0.0   0.035   0.000   20.6    41    6.8   19.3   7.95 1.1874    116    1    100.0    5 
28/01/15   4:10    8.2    8.2    8.1    95    7.4  20.0    SW   1.67  24.0   WSW    3.4    8.3    3.6  1010.4  0.00   0.0   0.035   0.000   20.6    41    6.8   19.3   7.95 1.1873    116    1    100.0    5 
28/01/15   4:15    8.2    8.2    8.2    95    7.5  22.0    SW   1.83  28.0    SW    3.2    8.4    3.4  1010.2  0.00   0.0   0.035   0.000   20.6    41    6.8   19.3   7.95 1.1871    116    1    100.0    5 
28/01/15   4:20    8.2    8.2    8.2    95    7.5  21.0    SW   1.75  25.0    SW    3.3    8.4    3.5  1010.2  0.00   0.0   0.035   0.000   20.5    41    6.8   19.2   7.95 1.1874    116    1    100.0    5 
28/01/15   4:25    8.3    8.3    8.2    96    7.7  22.0    SW   1.83  27.0    SW    3.3    8.4    3.4  1009.9  0.00   0.0   0.035   0.000   20.5    41    6.8   19.2   7.95 1.1869    116    1    100.0    5 
28/01/15   4:30    8.3    8.3    8.3    96    7.7  22.0    SW   1.83  29.0   WSW    3.3    8.5    3.5  1009.6  0.00   0.0   0.035   0.000   20.5    41    6.8   19.2   7.95 1.1867    117    1    100.0    5 
28/01/15   4:35    8.4    8.4    8.3    96    7.8  24.0    SW   2.00  28.0    SW    3.2    8.6    3.3  1009.5  0.00   0.0   0.035   0.000   20.4    41    6.7   19.2   7.95 1.1868    117    1    100.0    5 
28/01/15   4:40    8.4    8.4    8.3    96    7.8  25.0    SW   2.08  30.0    SW    3.1    8.6    3.2  1009.2  0.00   0.0   0.035   0.000   20.4    41    6.7   19.2   7.95 1.1865    117    1    100.0    5 
28/01/15   4:45    8.4    8.4    8.4    96    7.8  25.0    SW   2.08  30.0   WSW    3.1    8.7    3.3  1009.2  0.00   0.0   0.034   0.000   20.4    41    6.7   19.1   7.95 1.1867    116    1    100.0    5 
28/01/15   4:50    8.4    8.4    8.4    96    7.8  23.0    SW   1.92  28.0    SW    3.3    8.6    3.4  1009.1  0.00   0.0   0.035   0.000   20.4    41    6.7   19.1   7.95 1.1865    117    1    100.0    5 
28/01/15   4:55    8.4    8.4    8.4    96    7.8  23.0    SW   1.92  29.0    SW    3.3    8.7    3.6  1008.8  0.00   0.0   0.034   0.000   20.3    41    6.6   19.1   7.95 1.1865    118    1    100.0    5 
28/01/15   5:00    8.4    8.4    8.4    96    7.8  21.0    SW   1.75  26.0    SW    3.5    8.6    3.7  1008.4  0.00   0.0   0.035   0.000   20.3    41    6.6   19.1   7.95 1.1860    116    1    100.0    5 
28/01/15   5:05    8.4    8.4    8.4    96    7.8  22.0    SW   1.83  27.0    SW    3.4    8.7    3.7  1008.2  0.00   0.0   0.034   0.000   20.3    41    6.6   19.0   7.95 1.1860    116    1    100.0    5 
28/01/15   5:10    8.4    8.4    8.4    96    7.8  22.0    SW   1.83  29.0    SW    3.4    8.7    3.7  1008.0  0.00   0.0   0.034   0.000   20.2    41    6.5   18.9   7.95 1.1860    117    1    100.0    5 
28/01/15   5:15    8.4    8.5    8.4    96    7.8  22.0    SW   1.83  29.0    SW    3.4    8.7    3.7  1008.1  0.00   0.0   0.034   0.000   20.2    42    6.9   19.0   8.08 1.1859    115    1    100.0    5 
28/01/15   5:20    8.5    8.5    8.4    97    8.1  23.0    SW   1.92  28.0    SW    3.4    8.7    3.6  1008.2  0.00   0.0   0.034   0.000   20.2    42    6.8   18.9   8.08 1.1863    117    1    100.0    5 
28/01/15   5:25    8.5    8.5    8.4    97    8.1  23.0    SW   1.92  29.0    SW    3.4    8.7    3.6  1008.1  0.00   0.0   0.034   0.000   20.2    42    6.8   18.9   8.08 1.1862    116    1    100.0    5 
28/01/15   5:30    8.5    8.6    8.5    96    7.9  23.0    SW   1.92  31.0    SW    3.4    8.7    3.6  1008.1  0.00   0.0   0.034   0.000   20.1    42    6.8   18.9   8.09 1.1864    117    1    100.0    5 
28/01/15   5:35    8.4    8.5    8.4    96    7.8  22.0    SW   1.83  31.0   WSW    3.4    8.7    3.7  1008.1  0.00   0.0   0.034   0.000   20.1    42    6.7   18.8   8.09 1.1867    117    1    100.0    5 
28/01/15   5:40    8.4    8.4    8.4    96    7.8  23.0    SW   1.92  29.0    SW    3.3    8.7    3.6  1008.2  0.00   0.0   0.034   0.000   20.1    42    6.7   18.8   8.09 1.1868    117    1    100.0    5 
28/01/15   5:45    8.4    8.4    8.4    96    7.8  25.0    SW   2.08  31.0    SW    3.1    8.7    3.3  1008.1  0.00   0.0   0.034   0.000   20.0    42    6.7   18.8   8.09 1.1869    117    1    100.0    5 
28/01/15   5:50    8.4    8.4    8.4    96    7.8  26.0    SW   2.17  33.0    SW    3.0    8.7    3.2  1007.9  0.00   0.0   0.034   0.000   19.9    42    6.6   18.7   8.09 1.1869    116    1    100.0    5 
28/01/15   5:55    8.3    8.4    8.3    97    7.9  24.0    SW   2.00  29.0    SW    3.1    8.6    3.3  1007.5  0.00   0.0   0.035   0.000   19.9    42    6.6   18.7   8.09 1.1865    115    1    100.0    5 
28/01/15   6:00    8.3    8.3    8.3    97    7.9  24.0    SW   2.00  32.0    SW    3.1    8.6    3.3  1007.4  0.00   0.0   0.035   0.000   19.9    42    6.6   18.7   8.09 1.1866    118    1    100.0    5 
28/01/15   6:05    8.3    8.3    8.3    97    7.8  24.0    SW   2.00  30.0    SW    3.1    8.5    3.3  1007.2  0.00   0.0   0.035   0.000   19.9    42    6.6   18.7   8.09 1.1864    116    1    100.0    5 
28/01/15   6:10    8.3    8.3    8.3    97    7.8  24.0    SW   2.00  33.0   SSW    3.1    8.5    3.3  1006.9  0.00   0.0   0.035   0.000   19.8    43    6.9   18.7   8.25 1.1861    117    1    100.0    5 
28/01/15   6:15    8.3    8.3    8.3    97    7.8  23.0    SW   1.92  28.0    SW    3.2    8.5    3.4  1006.9  0.00   0.0   0.035   0.000   19.8    43    6.8   18.6   8.25 1.1864    116    1    100.0    5 
28/01/15   6:20    8.3    8.3    8.3    97    7.9  23.0    SW   1.92  31.0    SW    3.2    8.6    3.4  1006.6  0.00   0.0   0.035   0.000   19.8    43    6.8   18.6   8.25 1.1859    116    1    100.0    5 
28/01/15   6:25    8.3    8.3    8.3    97    7.8  25.0    SW   2.08  31.0    SW    2.9    8.5    3.2  1006.3  0.00   0.0   0.035   0.000   19.7    43    6.8   18.6   8.25 1.1859    116    1    100.0    5 
28/01/15   6:30    8.3    8.3    8.3    97    7.9  23.0    SW   1.92  28.0    SW    3.2    8.6    3.4  1006.3  0.00   0.0   0.035   0.000   19.7    43    6.8   18.6   8.25 1.1858    116    1    100.0    5 
28/01/15   6:35    8.4    8.4    8.3    97    7.9  24.0    SW   2.00  33.0    SW    3.2    8.6    3.4  1006.0  0.00   0.0   0.035   0.000   19.7    43    6.7   18.5   8.25 1.1858    116    1    100.0    5 
28/01/15   6:40    8.4    8.4    8.4    97    7.9  23.0    SW   1.92  29.0    SW    3.3    8.6    3.5  1006.1  0.00   0.0   0.035   0.000   19.7    43    6.7   18.5   8.25 1.1859    116    1    100.0    5 
28/01/15   6:45    8.5    8.5    8.4    97    8.1  23.0    SW   1.92  29.0    SW    3.4    8.7    3.6  1006.0  0.00   0.0   0.034   0.000   19.6    43    6.7   18.4   8.25 1.1860    116    1    100.0    5 
28/01/15   6:50    8.6    8.6    8.5    97    8.1  22.0    SW   1.83  27.0   WSW    3.6    8.8    3.8  1005.8  0.00   0.0   0.034   0.000   19.6    43    6.6   18.4   8.25 1.1861    117    1    100.0    5 
28/01/15   6:55    8.6    8.6    8.6    97    8.1  24.0    SW   2.00  30.0    SW    3.3    8.8    3.6  1005.6  0.00   0.0   0.034   0.000   19.6    43    6.6   18.4   8.25 1.1858    116    1    100.0    5 
28/01/15   7:00    8.6    8.7    8.6    97    8.2  23.0    SW   1.92  32.0    SW    3.5    8.8    3.7  1005.4  0.00   0.0   0.034   0.000   19.5    43    6.6   18.3   8.25 1.1859    116    1    100.0    5 
28/01/15   7:05    8.7    8.7    8.6    97    8.2  24.0    SW   2.00  30.0   SSW    3.5    8.9    3.7  1005.0  0.00   0.0   0.034   0.000   19.5    43    6.6   18.3   8.25 1.1854    118    1    100.0    5 
28/01/15   7:10    8.7    8.7    8.7    97    8.3  24.0    SW   2.00  29.0    SW    3.6    9.0    3.8  1004.8  0.00   0.0   0.033   0.000   19.4    43    6.5   18.3   8.25 1.1855    117    1    100.0    5 
28/01/15   7:15    8.7    8.8    8.7    97    8.3  24.0    SW   2.00  30.0    SW    3.6    9.0    3.8  1004.8  0.00   0.0   0.033   0.000   19.4    44    6.9   18.3   8.35 1.1852    115    1    100.0    5 
28/01/15   7:20    8.8    8.8    8.7    97    8.3  23.0    SW   1.92  30.0    SW    3.7    9.1    4.0  1004.3  0.00   0.0   0.033   0.000   19.4    44    6.8   18.3   8.35 1.1848    116    1    100.0    5 
28/01/15   7:25    8.9    8.9    8.8    97    8.5  25.0    SW   2.08  31.0    SW    3.7    9.2    3.9  1004.2  0.00   0.0   0.033   0.000   19.4    44    6.8   18.3   8.35 1.1847    116    1    100.0    5 
28/01/15   7:30    8.9    8.9    8.9    97    8.4  26.0    SW   2.17  32.0    SW    3.6    9.2    3.8  1004.1  0.00   0.0   0.033   0.000   19.3    44    6.8   18.2   8.35 1.1849    117    1    100.0    5 
28/01/15   7:35    8.9    8.9    8.9    97    8.5  26.0    SW   2.17  33.0   WSW    3.6    9.2    3.9  1004.0  0.00   0.0   0.033   0.000   19.3    44    6.8   18.2   8.35 1.1847    117    1    100.0    5 
28/01/15   7:40    8.9    8.9    8.9    97    8.5  26.0    SW   2.17  32.0   WSW    3.6    9.2    3.9  1003.8  0.00   0.0   0.033   0.000   19.3    44    6.7   18.1   8.35 1.1847    117    1    100.0    5 
28/01/15   7:45    8.9    9.0    8.9    97    8.5  26.0    SW   2.17  34.0    SW    3.6    9.2    3.9  1003.6  0.00   0.0   0.033   0.000   19.3    44    6.7   18.1   8.35 1.1845    117    1    100.0    5 
28/01/15   7:50    8.9    8.9    8.9    97    8.4  25.0    SW   2.08  31.0    SW    3.6    9.2    3.9  1003.6  0.00   0.0   0.033   0.000   19.2    44    6.7   18.1   8.35 1.1847    116    1    100.0    5 
28/01/15   7:55    8.9    8.9    8.9    97    8.4  25.0    SW   2.08  31.0    SW    3.6    9.2    3.9  1003.5  0.00   0.0   0.033   0.000   19.2    45    7.0   18.1   8.52 1.1843    117    1    100.0    5 
28/01/15   8:00    8.8    8.9    8.8    97    8.4  24.0    SW   2.00  31.0   WSW    3.7    9.1    3.9  1003.3  0.00   0.0   0.033   0.000   19.2    45    6.9   18.1   8.52 1.1844    116    1    100.0    5 
28/01/15   8:05    8.8    8.8    8.8    97    8.4  24.0    SW   2.00  30.0   WSW    3.7    9.1    3.9  1003.1  0.00   0.0   0.033   0.000   19.2    45    6.9   18.1   8.52 1.1842    117    1    100.0    5 
28/01/15   8:10    8.8    8.8    8.8    97    8.4  24.0    SW   2.00  30.0   WSW    3.7    9.1    3.9  1002.8  0.00   0.0   0.033   0.000   19.1    45    6.9   18.0   8.52 1.1841    117    1    100.0    5 
28/01/15   8:15    8.8    8.9    8.8    97    8.4  26.0    SW   2.17  32.0    SW    3.5    9.1    3.8  1002.7  0.00   0.0   0.033   0.000   19.1    45    6.9   18.0   8.52 1.1840    116    1    100.0    5 
28/01/15   8:20    8.9    8.9    8.8    97    8.4  27.0   WSW   2.25  34.0   WSW    3.4    9.2    3.7  1002.7  0.00   0.0   0.033   0.000   19.1    45    6.9   18.0   8.52 1.1840    117    1    100.0    5 
28/01/15   8:25    8.8    8.9    8.8    97    8.4  25.0    SW   2.08  32.0   WSW    3.6    9.1    3.8  1002.6  0.00   0.0   0.033   0.000   19.1    45    6.8   17.9   8.52 1.1842    117    1    100.0    5 
28/01/15   8:30    8.9    8.9    8.8    97    8.4  26.0   WSW   2.17  33.0   WSW    3.6    9.2    3.8  1002.6  0.00   0.0   0.033   0.000   19.0    45    6.8   17.8   8.53 1.1844    116    1    100.0    5 
28/01/15   8:35    8.8    8.9    8.8    97    8.4  28.0   WSW   2.33  33.0   WSW    3.3    9.1    3.6  1002.6  0.00   0.0   0.033   0.000   19.0    45    6.8   17.8   8.53 1.1844    117    1    100.0    5 
28/01/15   8:40    8.9    8.9    8.8    97    8.4  27.0   WSW   2.25  33.0   WSW    3.4    9.2    3.7  1002.8  0.00   0.0   0.033   0.000   19.0    46    7.1   17.9   8.65 1.1843    116    1    100.0    5 
28/01/15   8:45    8.9    8.9    8.8    97    8.4  27.0   WSW   2.25  37.0   WSW    3.4    9.2    3.7  1002.7  0.00   0.0   0.033   0.000   19.0    46    7.1   17.9   8.65 1.1842    116    1    100.0    5 
28/01/15   8:50    9.0    9.0    8.9    97    8.5  29.0   WSW   2.42  39.0   WSW    3.4    9.3    3.7  1002.6  0.00   0.0   0.032   0.000   19.0    46    7.1   17.9   8.65 1.1841    117    1    100.0    5 
28/01/15   8:55    8.9    9.0    8.9    97    8.5  28.0   WSW   2.33  36.0   WSW    3.4    9.2    3.7  1002.4  0.00   0.0   0.033   0.000   18.9    46    7.1   17.8   8.65 1.1841    117    1    100.0    5 
28/01/15   9:00    8.9    9.0    8.9    97    8.5  29.0   WSW   2.42  36.0   WSW    3.3    9.2    3.6  1002.3  0.00   0.0   0.033   0.000   18.9    46    7.1   17.8   8.65 1.1840    117    1    100.0    5 
28/01/15   9:05    9.0    9.0    8.9    97    8.5  29.0   WSW   2.42  36.0   WSW    3.4    9.3    3.7  1002.3  0.00   0.0   0.032   0.000   18.9    46    7.0   17.8   8.65 1.1843    116    1    100.0    5 
28/01/15   9:10    9.1    9.1    9.0    97    8.6  30.0   WSW   2.50  36.0   WSW    3.4    9.3    3.7  1002.2  0.00   0.0   0.032   0.000   18.9    46    7.0   17.8   8.65 1.1842    118    1    100.0    5 
28/01/15   9:15    9.1    9.1    9.1    97    8.6  25.0   WSW   2.08  35.0   WSW    3.8    9.3    4.1  1002.2  0.00   0.0   0.032   0.000   18.8    46    7.0   17.7   8.65 1.1844    117    1    100.0    5 
28/01/15   9:20    9.1    9.1    9.1    97    8.7  20.0   WSW   1.67  31.0   WSW    4.4    9.4    4.7  1002.0  0.00   0.0   0.032   0.000   18.8    46    7.0   17.7   8.65 1.1842    116    1    100.0    5 
28/01/15   9:25    9.2    9.2    9.2    96    8.6  18.0     W   1.50  28.0     W    4.9    9.5    5.2  1001.8  0.00   0.0   0.032   0.000   18.8    46    7.0   17.7   8.65 1.1840    115    1    100.0    5 
28/01/15   9:30    9.2    9.2    9.2    96    8.6  18.0     W   1.50  27.0   WSW    4.8    9.4    5.1  1001.6  0.00   0.0   0.032   0.000   18.8    46    7.0   17.7   8.65 1.1838    114    1    100.0    5 
28/01/15   9:35    9.2    9.2    9.2    96    8.6  16.0   WSW   1.33  22.0     W    5.1    9.4    5.4  1001.5  0.00   0.0   0.032   0.000   18.8    46    7.0   17.7   8.65 1.1836    117    1    100.0    5 
28/01/15   9:40    9.0    9.2    9.0    95    8.2  16.0   WSW   1.33  23.0   WSW    4.9    9.2    5.1  1001.3  0.00   0.0   0.032   0.000   18.8    46    7.0   17.7   8.65 1.1834    117    1    100.0    5 
28/01/15   9:45    8.9    9.0    8.9    95    8.2  17.0   WSW   1.42  24.0   WSW    4.7    9.2    4.9  1001.3  0.00   0.0   0.033   0.000   18.8    46    7.0   17.7   8.65 1.1833    117    1    100.0    5 
28/01/15   9:50    8.9    9.0    8.9    95    8.2  21.0   WSW   1.75  26.0   WSW    4.1    9.2    4.3  1001.2  0.00   0.0   0.033   0.000   18.8    46    7.0   17.7   8.65 1.1833    116    1    100.0    5 
28/01/15   9:55    8.9    8.9    8.9    95    8.1  22.0   WSW   1.83  28.0   WSW    3.9    9.1    4.2  1001.0  0.00   0.0   0.033   0.000   18.8    46    7.0   17.7   8.65 1.1830    116    1    100.0    5 
28/01/15  10:00    8.9    8.9    8.9    95    8.1  20.0   WSW   1.67  26.0   WSW    4.2    9.1    4.4  1000.9  0.00   0.0   0.033   0.000   18.8    46    7.0   17.7   8.65 1.1829    116    1    100.0    5 
28/01/15  10:05    8.9    8.9    8.9    94    8.0  22.0   WSW   1.83  33.0   WSW    4.0    9.2    4.2  1000.9  0.00   0.0   0.033   0.000   18.8    46    7.0   17.7   8.65 1.1829    116    1    100.0    5 
28/01/15  10:10    9.1    9.1    8.9    94    8.1  18.0   WSW   1.50  27.0   WSW    4.7    9.3    4.9  1000.9  0.00   0.0   0.032   0.000   18.8    46    7.0   17.7   8.65 1.1829    117    1    100.0    5 
28/01/15  10:15    9.1    9.1    9.0    93    8.0  17.0     W   1.42  24.0   WSW    4.9    9.3    5.1  1000.9  0.00   0.0   0.032   0.000   18.9    46    7.0   17.8   8.65 1.1826    118    1    100.0    5 
28/01/15  10:20    9.2    9.2    9.1    91    7.8  18.0     W   1.50  30.0     W    4.8    9.3    5.0  1000.8  0.00   0.0   0.032   0.000   18.8    46    7.0   17.7   8.65 1.1828    116    1    100.0    5 
28/01/15  10:25    9.3    9.3    9.2    90    7.8  17.0     W   1.42  33.0     W    5.2    9.5    5.3  1000.8  0.00   0.0   0.031   0.000   18.8    46    7.0   17.7   8.65 1.1828    117    1    100.0    5 
28/01/15  10:30    9.4    9.5    9.3    85    7.0  22.0     W   1.83  36.0     W    4.6    9.5    4.7  1000.9  0.00   0.0   0.031   0.000   18.8    46    7.0   17.7   8.65 1.1829    116    1    100.0    5 
28/01/15  10:35    9.4    9.6    9.4    85    7.0  22.0     W   1.83  39.0   WNW    4.6    9.5    4.7  1001.6  0.00   0.0   0.031   0.000   18.8    46    7.0   17.7   8.65 1.1838    117    1    100.0    5 
28/01/15  10:40    8.3    9.4    8.3    84    5.8  25.0   WNW   2.08  44.0     W    3.0    8.3    3.0  1001.6  0.00   0.0   0.035   0.000   18.8    46    7.0   17.7   8.65 1.1837    117    1    100.0    5 
28/01/15  10:45    7.8    8.3    7.8    86    5.6  20.0   WNW   1.67  32.0   WNW    3.0    7.8    3.0  1001.4  0.00   0.0   0.036   0.000   18.8    46    7.0   17.7   8.65 1.1835    117    1    100.0    5 
28/01/15  10:50    7.7    7.8    7.7    86    5.5  20.0   WNW   1.67  30.0   WNW    2.9    7.7    2.9  1001.4  0.00   0.0   0.037   0.000   18.8    46    7.0   17.7   8.65 1.1834    117    1    100.0    5 
28/01/15  10:55    7.7    7.7    7.7    85    5.4  20.0   WNW   1.67  33.0   WNW    2.9    7.7    2.9  1001.4  0.00   0.0   0.037   0.000   18.8    46    7.0   17.7   8.65 1.1834    117    1    100.0    5 
28/01/15  11:00    7.7    7.7    7.7    85    5.4  17.0   WNW   1.42  26.0   WNW    3.3    7.7    3.3  1001.3  0.00   0.0   0.037   0.000   18.8    45    6.6   17.7   8.53 1.1836    116    1    100.0    5 
28/01/15  11:05    7.7    7.7    7.7    85    5.3  15.0     W   1.25  29.0    NW    3.6    7.7    3.6  1001.1  0.00   0.0   0.037   0.000   18.8    45    6.6   17.7   8.53 1.1834    117    1    100.0    5 
28/01/15  11:10    7.6    7.7    7.6    85    5.2  16.0     W   1.33  27.0   WNW    3.3    7.6    3.3  1001.3  0.00   0.0   0.037   0.000   18.8    45    6.6   17.7   8.53 1.1836    117    1    100.0    5 
28/01/15  11:15    7.6    7.7    7.6    84    5.1  17.0     W   1.42  26.0     W    3.2    7.6    3.1  1001.4  0.00   0.0   0.037   0.000   18.8    45    6.6   17.7   8.53 1.1838    115    1    100.0    5 
28/01/15  11:20    7.6    7.7    7.6    84    5.1  15.0   WNW   1.25  25.0   WNW    3.5    7.6    3.4  1001.4  0.00   0.0   0.037   0.000   18.8    45    6.6   17.7   8.53 1.1837    117    1    100.0    5 
28/01/15  11:25    7.7    7.7    7.6    84    5.1  15.0   WNW   1.25  31.0     W    3.6    7.6    3.5  1001.4  0.00   0.0   0.037   0.000   18.8    45    6.6   17.7   8.53 1.1837    116    1    100.0    5 
28/01/15  11:30    7.7    7.7    7.7    84    5.1  14.0     W   1.17  27.0     W    3.8    7.6    3.7  1001.5  0.00   0.0   0.037   0.000   18.8    45    6.6   17.6   8.53 1.1841    115    1    100.0    5 
28/01/15  11:35    7.7    7.7    7.7    83    5.0  18.0     W   1.50  28.0     W    3.1    7.6    3.1  1001.7  0.00   0.0   0.037   0.000   18.8    45    6.6   17.6   8.53 1.1843    116    1    100.0    5 
28/01/15  11:40    7.5    7.7    7.5    85    5.1  19.0   WNW   1.58  35.0   WNW    2.8    7.5    2.8  1002.1  0.00   0.0   0.038   0.000   18.8    45    6.6   17.7   8.53 1.1845    116    1    100.0    5 
28/01/15  11:45    7.1    7.5    7.1    84    4.5  14.0   WNW   1.17  25.0   WNW    3.1    7.0    3.0  1002.0  0.00   0.0   0.039   0.000   18.8    45    6.6   17.6   8.53 1.1847    116    1    100.0    5 
28/01/15  11:50    6.8    7.1    6.8    80    3.6  17.0   WNW   1.42  31.0     W    2.2    6.7    2.1  1001.9  0.00   0.0   0.040   0.000   18.8    44    6.3   17.6   8.35 1.1849    115    1    100.0    5 
28/01/15  11:55    6.9    6.9    6.8    79    3.5  15.0   WNW   1.25  22.0     W    2.7    6.8    2.6  1001.8  0.00   0.0   0.040   0.000   18.8    44    6.3   17.6   8.35 1.1848    117    1    100.0    5 
28/01/15  12:00    6.9    6.9    6.9    78    3.4  11.0   WNW   0.92  22.0     W    3.6    6.8    3.4  1001.6  0.00   0.0   0.040   0.000   18.8    44    6.3   17.6   8.35 1.1845    117    1    100.0    5 
28/01/15  12:05    6.9    6.9    6.9    76    3.0  12.0     W   1.00  20.0     W    3.3    6.7    3.1  1001.6  0.00   0.0   0.040   0.000   18.7    44    6.2   17.5   8.35 1.1847    117    1    100.0    5 
28/01/15  12:10    7.2    7.2    6.9    75    3.1  13.0     W   1.08  24.0   WNW    3.4    7.0    3.2  1001.6  0.00   0.0   0.039   0.000   18.8    44    6.3   17.6   8.35 1.1845    116    1    100.0    5 
28/01/15  12:15    7.8    7.8    7.3    77    4.0  10.0   WNW   0.83  20.0   WNW    4.8    7.6    4.6  1001.6  0.00   0.0   0.037   0.000   18.8    44    6.3   17.6   8.35 1.1845    117    1    100.0    5 
28/01/15  12:20    8.3    8.3    7.8    75    4.1   9.0   WNW   0.75  15.0     W    5.7    8.1    5.5  1001.6  0.00   0.0   0.035   0.000   18.8    44    6.3   17.6   8.35 1.1845    118    1    100.0    5 
28/01/15  12:25    8.4    8.4    8.3    74    4.1  14.0   WNW   1.17  25.0   WNW    4.6    8.3    4.4  1001.8  0.00   0.0   0.034   0.000   18.8    44    6.3   17.6   8.35 1.1848    117    1    100.0    5 
28/01/15  12:30    8.6    8.6    8.4    71    3.6  13.0   WNW   1.08  32.0     W    4.9    8.3    4.7  1001.9  0.00   0.0   0.034   0.000   18.8    44    6.3   17.6   8.35 1.1849    117    1    100.0    5 
28/01/15  12:35    8.2    8.6    8.2    67    2.4  19.0   WNW   1.58  32.0    NW    3.5    7.8    3.2  1002.0  0.00   0.0   0.035   0.000   18.8    44    6.3   17.6   8.35 1.1850    116    1    100.0    5 
28/01/15  12:40    7.9    8.2    7.9    67    2.2  19.0   WNW   1.58  33.0   WNW    3.3    7.6    2.9  1002.3  0.00   0.0   0.036   0.000   18.8    44    6.3   17.6   8.35 1.1853    115    1    100.0    5 
28/01/15  12:45    7.9    7.9    7.9    66    1.9  17.0   WNW   1.42  24.0   NNW    3.5    7.5    3.1  1002.3  0.00   0.0   0.036   0.000   18.8    44    6.3   17.6   8.35 1.1853    117    1    100.0    5 
28/01/15  12:50    7.8    7.9    7.8    65    1.7  16.0    NW   1.33  34.0   WNW    3.6    7.4    3.2  1002.3  0.00   0.0   0.036   0.000   18.8    44    6.3   17.6   8.35 1.1850    117    1    100.0    5 
28/01/15  12:55    7.7    7.8    7.7    65    1.6  18.0   WNW   1.50  31.0    NW    3.2    7.3    2.8  1002.5  0.00   0.0   0.037   0.000   18.8    44    6.3   17.6   8.35 1.1853    117    1    100.0    5 
28/01/15  13:00    7.4    7.7    7.4    65    1.2  18.0   WNW   1.50  32.0   WNW    2.8    7.0    2.4  1002.7  0.00   0.0   0.038   0.000   18.8    43    6.0   17.6   8.25 1.1859    117    1    100.0    5 
28/01/15  13:05    7.2    7.4    7.2    64    0.8  17.0   WNW   1.42  33.0   WNW    2.7    6.8    2.3  1002.7  0.00   0.0   0.039   0.000   18.8    43    6.0   17.6   8.25 1.1859    117    1    100.0    5 
28/01/15  13:10    7.0    7.1    7.0    65    0.9  15.0   WNW   1.25  25.0   WNW    2.8    6.6    2.4  1002.8  0.00   0.0   0.039   0.000   18.8    43    6.0   17.6   8.25 1.1859    117    1    100.0    5 
28/01/15  13:15    6.8    7.0    6.8    63    0.3  15.0   WNW   1.25  31.0   WNW    2.6    6.4    2.2  1002.9  0.00   0.0   0.040   0.000   18.9    43    6.0   17.6   8.25 1.1858    117    1    100.0    5 
28/01/15  13:20    6.6    6.8    6.6    64    0.3  16.0   WNW   1.33  26.0    NW    2.2    6.2    1.8  1003.0  0.00   0.0   0.041   0.000   18.8    43    6.0   17.6   8.25 1.1862    117    1    100.0    5 
28/01/15  13:25    6.4    6.6    6.4    65    0.3  13.0   WNW   1.08  25.0     W    2.6    6.1    2.2  1003.2  0.00   0.0   0.041   0.000   18.8    43    6.0   17.6   8.25 1.1863    118    1    100.0    5 
28/01/15  13:30    6.3    6.5    6.3    65    0.2  13.0   WNW   1.08  21.0   WNW    2.4    5.9    2.0  1003.2  0.00   0.0   0.042   0.000   18.8    43    6.0   17.6   8.25 1.1863    116    1    100.0    5 
28/01/15  13:35    6.2    6.3    6.2    64   -0.1  12.0   WNW   1.00  23.0    NW    2.5    5.8    2.1  1003.3  0.00   0.0   0.042   0.000   18.8    43    6.0   17.6   8.25 1.1865    117    1    100.0    5 
28/01/15  13:40    6.1    6.2    6.1    64   -0.2  14.0   WNW   1.17  21.0   WNW    1.9    5.7    1.6  1003.3  0.00   0.0   0.043   0.000   18.8    43    5.9   17.5   8.25 1.1868    116    1    100.0    5 
28/01/15  13:45    5.9    6.1    5.9    65   -0.1  12.0   WNW   1.00  19.0     W    2.2    5.6    1.8  1003.4  0.00   0.0   0.043   0.000   18.8    43    5.9   17.5   8.25 1.1869    117    1    100.0    5 
28/01/15  13:50    5.9    6.0    5.9    64   -0.4  12.0     W   1.00  25.0     W    2.1    5.5    1.7  1003.5  0.00   0.0   0.043   0.000   18.8    43    5.9   17.5   8.25 1.1870    117    1    100.0    5 
28/01/15  13:55    5.8    5.9    5.8    64   -0.5  12.0   WNW   1.00  22.0   WNW    2.1    5.4    1.7  1003.6  0.00   0.0   0.043   0.000   18.8    43    5.9   17.5   8.25 1.1871    116    1    100.0    5 
28/01/15  14:00    5.8    5.8    5.8    64   -0.5   9.0   WNW   0.75  17.0   WNW    2.7    5.4    2.3  1003.6  0.00   0.0   0.044   0.000   18.8    43    5.9   17.5   8.25 1.1872    117    1    100.0    5 
28/01/15  14:05    5.8    5.8    5.8    64   -0.5  12.0   WNW   1.00  22.0     W    2.0    5.4    1.6  1003.7  0.00   0.0   0.044   0.000   18.8    43    5.9   17.5   8.25 1.1872    116    1    100.0    5 
28/01/15  14:10    5.7    5.8    5.7    65   -0.4  10.0     W   0.83  19.0   WNW    2.4    5.3    2.0  1003.8  0.00   0.0   0.044   0.000   18.8    43    5.9   17.5   8.25 1.1874    117    1    100.0    5 
28/01/15  14:15    5.6    5.7    5.6    66   -0.2   9.0   WNW   0.75  16.0   WNW    2.6    5.2    2.2  1003.8  0.00   0.0   0.044   0.000   18.7    43    5.9   17.4   8.25 1.1877    117    1    100.0    5 
28/01/15  14:20    5.6    5.6    5.6    66   -0.3  12.0   WNW   1.00  22.0   WNW    1.7    5.2    1.3  1003.9  0.00   0.0   0.044   0.000   18.7    43    5.9   17.4   8.25 1.1878    117    1    100.0    5 
28/01/15  14:25    5.5    5.6    5.5    66   -0.4   9.0   WNW   0.75  15.0     W    2.4    5.1    2.1  1004.0  0.00   0.0   0.045   0.000   18.7    43    5.9   17.4   8.25 1.1878    117    1    100.0    5 
28/01/15  14:30    5.5    5.5    5.5    66   -0.4  13.0   WNW   1.08  24.0     W    1.5    5.1    1.1  1004.0  0.00   0.0   0.045   0.000   18.7    43    5.9   17.4   8.25 1.1878    117    1    100.0    5 
28/01/15  14:35    5.5    5.5    5.5    65   -0.6  13.0     W   1.08  24.0     W    1.5    5.1    1.1  1004.0  0.00   0.0   0.045   0.000   18.7    43    5.9   17.4   8.25 1.1878    116    1    100.0    5 
28/01/15  14:40    5.5    5.5    5.4    64   -0.8  11.0   WNW   0.92  22.0     W    1.9    5.1    1.5  1004.0  0.00   0.0   0.045   0.000   18.7    43    5.9   17.4   8.25 1.1879    116    1    100.0    5 
28/01/15  14:45    5.4    5.5    5.4    63   -1.0  12.0   WNW   1.00  20.0   WNW    1.6    5.1    1.2  1003.9  0.00   0.0   0.045   0.000   18.7    43    5.9   17.4   8.25 1.1877    117    1    100.0    5 
28/01/15  14:50    5.4    5.4    5.4    63   -1.0  11.0     W   0.92  18.0     W    1.8    5.1    1.4  1003.9  0.00   0.0   0.045   0.000   18.7    43    5.9   17.4   8.25 1.1878    117    1    100.0    5 
28/01/15  14:55    5.3    5.4    5.3    64   -0.9   9.0   WNW   0.75  16.0     W    2.2    4.9    1.8  1004.1  0.00   0.0   0.045   0.000   18.8    43    5.9   17.5   8.25 1.1877    117    1    100.0    5 
28/01/15  15:00    5.3    5.3    5.3    64   -1.0   9.0     W   0.75  15.0   WNW    2.2    4.9    1.8  1004.1  0.00   0.0   0.045   0.000   18.8    43    5.9   17.5   8.25 1.1878    117    1    100.0    5 
28/01/15  15:05    5.2    5.3    5.2    65   -0.8   9.0     W   0.75  17.0     W    2.1    4.8    1.7  1004.2  0.00   0.0   0.046   0.000   18.8    43    6.0   17.6   8.25 1.1876    117    1    100.0    5 
28/01/15  15:10    5.2    5.2    5.2    65   -0.9  10.0     W   0.83  14.0     W    1.8    4.8    1.4  1004.1  0.00   0.0   0.046   0.000   18.9    43    6.0   17.6   8.25 1.1872    116    1    100.0    5 
28/01/15  15:15    5.2    5.2    5.2    65   -0.9   9.0     W   0.75  15.0   WNW    2.1    4.8    1.7  1004.2  0.00   0.0   0.046   0.000   18.9    43    6.0   17.6   8.25 1.1874    117    1    100.0    5 
28/01/15  15:20    5.1    5.2    5.1    66   -0.7   8.0     W   0.67  15.0     W    2.2    4.7    1.8  1004.2  0.00   0.0   0.046   0.000   18.9    43    6.1   17.7   8.25 1.1871    116    1    100.0    5 
28/01/15  15:25    5.0    5.1    5.0    66   -0.8   9.0     W   0.75  13.0     W    1.8    4.6    1.4  1004.2  0.00   0.0   0.046   0.000   18.9    43    6.1   17.7   8.25 1.1871    113    1     99.1    5 
28/01/15  15:30    5.0    5.0    5.0    67   -0.6   9.0     W   0.75  14.0     W    1.8    4.6    1.4  1004.1  0.00   0.0   0.046   0.000   19.0    43    6.1   17.7   8.25 1.1867    114    1    100.0    5 
28/01/15  15:35    5.0    5.0    5.0    68   -0.4   9.0     W   0.75  14.0     W    1.8    4.7    1.5  1004.2  0.00   0.0   0.046   0.000   19.1    43    6.2   17.8   8.25 1.1865    117    1    100.0    5 
28/01/15  15:40    5.0    5.0    4.9    70   -0.0  10.0     W   0.83  17.0     W    1.6    4.7    1.2  1004.2  0.00   0.0   0.046   0.000   19.1    43    6.2   17.9   8.25 1.1862    117    1    100.0    5 
28/01/15  15:45    4.9    5.0    4.9    71    0.1  11.0     W   0.92  18.0     W    1.3    4.6    0.9  1004.2  0.00   0.0   0.046   0.000   19.1    43    6.2   17.9   8.25 1.1863    115    1    100.0    5 
28/01/15  15:50    4.9    4.9    4.9    71    0.1  11.0     W   0.92  16.0   WSW    1.3    4.6    0.9  1004.1  0.00   0.0   0.046   0.000   19.2    43    6.3   17.9   8.25 1.1859    116    1    100.0    5 
28/01/15  15:55    4.9    4.9    4.9    71    0.1  12.0     W   1.00  17.0     W    1.1    4.6    0.7  1004.1  0.00   0.0   0.046   0.000   19.2    43    6.3   18.0   8.25 1.1857    116    1    100.0    5 
28/01/15  16:00    4.9    4.9    4.9    71    0.1  11.0     W   0.92  19.0     W    1.2    4.6    0.9  1004.1  0.00   0.0   0.047   0.000   19.3    43    6.4   18.1   8.25 1.1854    116    1    100.0    5 
28/01/15  16:05    4.8    4.9    4.8    71    0.0  10.0     W   0.83  15.0   WNW    1.3    4.5    1.0  1004.2  0.00   0.0   0.047   0.000   19.3    43    6.4   18.1   8.25 1.1854    117    1    100.0    5 
28/01/15  16:10    4.8    4.8    4.8    71   -0.0  11.0     W   0.92  16.0     W    1.1    4.4    0.7  1004.2  0.00   0.0   0.047   0.000   19.3    43    6.4   18.1   8.25 1.1852    115    1    100.0    5 
28/01/15  16:15    4.8    4.8    4.8    71   -0.0  12.0     W   1.00  21.0     W    0.8    4.4    0.5  1004.2  0.00   0.0   0.047   0.000   19.4    43    6.5   18.2   8.25 1.1849    117    1    100.0    5 
28/01/15  16:20    4.8    4.8    4.8    71   -0.0  11.0     W   0.92  16.0     W    1.1    4.4    0.7  1004.1  0.00   0.0   0.047   0.000   19.4    43    6.5   18.3   8.25 1.1846    117    1    100.0    5 
28/01/15  16:25    4.7    4.8    4.7    71   -0.1   9.0     W   0.75  15.0   WSW    1.4    4.3    1.1  1004.1  0.00   0.0   0.047   0.000   19.5    43    6.6   18.3   8.25 1.1843    115    1    100.0    5 
28/01/15  16:30    4.6    4.7    4.6    71   -0.2   9.0     W   0.75  16.0     W    1.4    4.3    1.1  1004.1  0.00   0.0   0.048   0.000   19.5    43    6.6   18.3   8.25 1.1843    117    1    100.0    5 
28/01/15  16:35    4.6    4.7    4.6    71   -0.2  10.0     W   0.83  16.0   WNW    1.1    4.3    0.8  1004.0  0.00   0.0   0.048   0.000   19.6    43    6.6   18.4   8.25 1.1839    114    1    100.0    5 
28/01/15  16:40    4.6    4.6    4.6    71   -0.3   9.0     W   0.75  15.0     W    1.3    4.2    0.9  1004.0  0.00   0.0   0.048   0.000   19.6    43    6.7   18.4   8.25 1.1837    117    1    100.0    5 
28/01/15  16:45    4.6    4.6    4.5    71   -0.3  10.0   WNW   0.83  17.0    NW    1.0    4.2    0.7  1003.9  0.00   0.0   0.048   0.000   19.7    43    6.7   18.5   8.25 1.1833    115    1    100.0    5 
28/01/15  16:50    4.6    4.6    4.5    71   -0.3   9.0     W   0.75  14.0     W    1.3    4.2    0.9  1003.9  0.00   0.0   0.048   0.000   19.7    43    6.7   18.5   8.25 1.1832    117    1    100.0    5 
28/01/15  16:55    4.5    4.6    4.5    72   -0.1   9.0     W   0.75  16.0   WSW    1.2    4.2    0.9  1003.8  0.00   0.0   0.048   0.000   19.7    43    6.8   18.6   8.25 1.1829    116    1    100.0    5 
28/01/15  17:00    4.6    4.6    4.5    72   -0.1  12.0     W   1.00  18.0     W    0.6    4.2    0.2  1003.7  0.00   0.0   0.048   0.000   19.7    43    6.8   18.6   8.25 1.1828    117    1    100.0    5 
28/01/15  17:05    4.6    4.6    4.6    72   -0.0  11.0     W   0.92  20.0   WNW    0.9    4.3    0.6  1003.8  0.00   0.0   0.048   0.000   19.7    42    6.4   18.5   8.10 1.1831    115    1    100.0    5 
28/01/15  17:10    4.6    4.6    4.6    73    0.2  10.0     W   0.83  18.0     W    1.1    4.3    0.8  1003.7  0.00   0.0   0.048   0.000   19.8    42    6.5   18.6   8.10 1.1828    117    1    100.0    5 
28/01/15  17:15    4.7    4.7    4.6    73    0.2  11.0     W   0.92  19.0     W    0.9    4.4    0.7  1003.7  0.00   0.0   0.047   0.000   19.8    42    6.5   18.6   8.10 1.1828    116    1    100.0    5 
28/01/15  17:20    4.7    4.7    4.6    73    0.2  13.0     W   1.08  20.0   WSW    0.5    4.4    0.2  1003.8  0.00   0.0   0.047   0.000   19.8    42    6.5   18.6   8.10 1.1826    115    1    100.0    5 
28/01/15  17:25    4.7    4.7    4.7    73    0.3  12.0     W   1.00  20.0   WNW    0.8    4.4    0.5  1003.7  0.00   0.0   0.047   0.000   19.8    42    6.5   18.6   8.10 1.1825    117    1    100.0    5 
28/01/15  17:30    4.7    4.7    4.7    73    0.3  12.0     W   1.00  23.0     W    0.8    4.4    0.5  1003.6  0.00   0.0   0.047   0.000   19.8    42    6.5   18.6   8.10 1.1826    117    1    100.0    5 
28/01/15  17:35    4.8    4.8    4.7    74    0.5  14.0     W   1.17  20.0     W    0.5    4.5    0.2  1003.6  0.00   0.0   0.047   0.000   19.8    42    6.5   18.6   8.10 1.1826    117    1    100.0    5 
28/01/15  17:40    4.8    4.8    4.8    73    0.3  12.0     W   1.00  21.0     W    0.8    4.5    0.6  1003.7  0.00   0.0   0.047   0.000   19.8    41    6.2   18.6   7.95 1.1828    117    1    100.0    5 
28/01/15  17:45    4.7    4.8    4.7    73    0.2  14.0     W   1.17  23.0     W    0.3    4.4    0.1  1003.6  0.00   0.0   0.047   0.000   19.8    41    6.1   18.5   7.95 1.1829    117    1    100.0    5 
28/01/15  17:50    4.6    4.7    4.6    74    0.4  13.0     W   1.08  22.0     W    0.4    4.3    0.2  1003.6  0.00   0.0   0.048   0.000   19.8    41    6.1   18.5   7.95 1.1829    117    1    100.0    5 
28/01/15  17:55    4.6    4.6    4.6    73    0.1  14.0     W   1.17  20.0   WNW    0.2    4.3   -0.1  1003.6  0.00   0.0   0.048   0.000   19.8    41    6.1   18.5   7.95 1.1829    117    1    100.0    5 
28/01/15  18:00    4.5    4.6    4.5    74    0.3  12.0     W   1.00  21.0     W    0.5    4.2    0.2  1003.5  0.00   0.0   0.048   0.000   19.8    41    6.1   18.5   7.95 1.1828    117    1    100.0    5 
28/01/15  18:05    4.5    4.5    4.5    74    0.3  12.0     W   1.00  20.0   WSW    0.5    4.2    0.2  1003.5  0.00   0.0   0.048   0.000   19.7    41    6.1   18.4   7.95 1.1830    117    1    100.0    5 
28/01/15  18:10    4.4    4.5    4.4    74    0.2  12.0     W   1.00  22.0     W    0.4    4.2    0.2  1003.5  0.00   0.0   0.048   0.000   19.7    41    6.1   18.4   7.95 1.1830    117    1    100.0    5 
28/01/15  18:15    4.4    4.4    4.4    74    0.2  13.0     W   1.08  21.0     W    0.3    4.2    0.0  1003.4  0.00   0.0   0.048   0.000   19.7    40    5.7   18.4   7.80 1.1832    117    1    100.0    5 
28/01/15  18:20    4.5    4.5    4.4    74    0.3  13.0     W   1.08  22.0     W    0.3    4.2    0.1  1003.5  0.00   0.0   0.048   0.000   19.7    40    5.7   18.3   7.80 1.1836    117    1    100.0    5 
28/01/15  18:25    4.5    4.5    4.5    74    0.3  12.0     W   1.00  21.0     W    0.5    4.2    0.2  1003.4  0.00   0.0   0.048   0.000   19.7    40    5.7   18.3   7.80 1.1834    117    1    100.0    5 
28/01/15  18:30    4.6    4.6    4.5    74    0.3  12.0     W   1.00  19.0     W    0.6    4.3    0.3  1003.3  0.00   0.0   0.048   0.000   19.7    40    5.7   18.3   7.80 1.1834    117    1    100.0    5 
28/01/15  18:35    4.6    4.6    4.6    74    0.3  13.0     W   1.08  20.0     W    0.4    4.3    0.1  1003.3  0.00   0.0   0.048   0.000   19.6    40    5.6   18.2   7.80 1.1836    116    1    100.0    5 
28/01/15  18:40    4.6    4.6    4.6    75    0.5  12.0     W   1.00  20.0     W    0.6    4.3    0.3  1003.3  0.00   0.0   0.048   0.000   19.6    40    5.6   18.2   7.80 1.1836    117    1    100.0    5 
28/01/15  18:45    4.6    4.6    4.6    75    0.6  14.0     W   1.17  22.0     W    0.3    4.3    0.0  1003.1  0.00   0.0   0.048   0.000   19.6    40    5.6   18.2   7.80 1.1834    115    1    100.0    5 
28/01/15  18:50    4.6    4.6    4.6    75    0.6  12.0     W   1.00  20.0     W    0.7    4.3    0.4  1003.1  0.00   0.0   0.048   0.000   19.6    40    5.6   18.2   7.81 1.1836    117    1    100.0    5 
28/01/15  18:55    4.6    4.6    4.6    75    0.5  13.0     W   1.08  20.0     W    0.4    4.3    0.1  1003.1  0.00   0.0   0.048   0.000   19.6    40    5.6   18.2   7.81 1.1836    117    1    100.0    5 
28/01/15  19:00    4.5    4.6    4.4    75    0.5  13.0     W   1.08  21.0   WSW    0.3    4.2    0.1  1003.0  0.00   0.0   0.048   0.000   19.5    40    5.5   18.1   7.81 1.1838    117    1    100.0    5 
28/01/15  19:05    4.4    4.5    4.4    76    0.6  12.0     W   1.00  17.0   WSW    0.4    4.2    0.2  1003.0  0.00   0.0   0.048   0.000   19.5    40    5.5   18.1   7.81 1.1838    115    1    100.0    5 
28/01/15  19:10    4.4    4.5    4.4    77    0.8  11.0     W   0.92  21.0   WSW    0.7    4.2    0.4  1003.0  0.00   0.0   0.048   0.000   19.4    39    5.1   18.0   7.71 1.1844    116    1    100.0    5 
28/01/15  19:15    4.4    4.5    4.4    77    0.8  14.0     W   1.17  23.0     W    0.1    4.2   -0.1  1003.1  0.00   0.0   0.048   0.000   19.4    39    5.1   18.0   7.71 1.1844    116    1    100.0    5 
28/01/15  19:20    4.3    4.4    4.3    76    0.5  13.0     W   1.08  21.0   WSW    0.1    4.1   -0.1  1003.0  0.00   0.0   0.049   0.000   19.4    39    5.1   17.9   7.71 1.1846    116    1    100.0    5 
28/01/15  19:25    4.3    4.3    4.3    77    0.6  11.0     W   0.92  20.0   WNW    0.5    4.1    0.3  1002.9  0.00   0.0   0.049   0.000   19.4    39    5.1   17.9   7.71 1.1845    116    1    100.0    5 
28/01/15  19:30    4.2    4.3    4.2    77    0.5  13.0     W   1.08  21.0     W    0.0    4.0   -0.2  1002.8  0.00   0.0   0.049   0.000   19.3    39    5.0   17.9   7.71 1.1847    116    1    100.0    5 
28/01/15  19:35    4.2    4.2    4.2    77    0.5  12.0     W   1.00  21.0     W    0.1    3.9   -0.1  1002.7  0.00   0.0   0.049   0.000   19.3    39    5.0   17.9   7.71 1.1845    117    1    100.0    5 
28/01/15  19:40    4.1    4.2    4.1    77    0.4  10.0     W   0.83  16.0     W    0.5    3.9    0.3  1002.5  0.00   0.0   0.049   0.000   19.3    39    5.0   17.8   7.72 1.1846    116    1    100.0    5 
28/01/15  19:45    4.1    4.1    4.1    77    0.4   9.0     W   0.75  17.0   WNW    0.7    3.8    0.4  1002.5  0.00   0.0   0.050   0.000   19.3    39    5.0   17.8   7.72 1.1845    117    1    100.0    5 
28/01/15  19:50    4.1    4.1    4.0    78    0.6  10.0     W   0.83  17.0     W    0.4    3.8    0.2  1002.4  0.00   0.0   0.050   0.000   19.2    39    4.9   17.7   7.72 1.1847    117    1    100.0    5 
28/01/15  19:55    4.0    4.1    4.0    78    0.5  10.0     W   0.83  16.0     W    0.4    3.8    0.2  1002.3  0.00   0.0   0.050   0.000   19.2    39    4.9   17.7   7.72 1.1848    117    1    100.0    5 
28/01/15  20:00    4.0    4.1    4.0    78    0.5  10.0     W   0.83  15.0   WNW    0.4    3.8    0.2  1002.3  0.00   0.0   0.050   0.000   19.2    39    4.9   17.7   7.72 1.1848    115    1    100.0    5 
28/01/15  20:05    4.0    4.1    4.0    78    0.5   9.0     W   0.75  17.0     W    0.6    3.8    0.4  1002.3  0.00   0.0   0.050   0.000   19.2    39    4.9   17.7   7.72 1.1848    117    1    100.0    5 
28/01/15  20:10    4.0    4.0    4.0    79    0.7   9.0     W   0.75  17.0     W    0.6    3.8    0.4  1002.2  0.00   0.0   0.050   0.000   19.1    39    4.8   17.6   7.72 1.1850    116    1    100.0    5 
28/01/15  20:15    4.1    4.1    4.0    79    0.7  10.0     W   0.83  16.0     W    0.4    3.9    0.3  1002.0  0.00   0.0   0.050   0.000   19.1    39    4.8   17.6   7.72 1.1847    114    1    100.0    5 
28/01/15  20:20    4.1    4.1    4.1    80    0.9  11.0     W   0.92  22.0   WSW    0.2    3.9    0.1  1002.0  0.00   0.0   0.050   0.000   19.1    39    4.8   17.6   7.72 1.1850    117    1    100.0    5 
28/01/15  20:25    4.1    4.1    4.1    79    0.7  10.0     W   0.83  16.0     W    0.4    3.9    0.3  1001.9  0.00   0.0   0.050   0.000   19.0    39    4.7   17.5   7.73 1.1851    116    1    100.0    5 
28/01/15  20:30    3.9    4.1    3.9    79    0.6   9.0     W   0.75  15.0   WNW    0.6    3.8    0.4  1001.9  0.00   0.0   0.050   0.000   19.0    39    4.7   17.5   7.73 1.1851    116    1    100.0    5 
28/01/15  20:35    3.8    3.9    3.8    79    0.5   9.0     W   0.75  17.0   WNW    0.4    3.7    0.2  1001.7  0.00   0.0   0.050   0.000   19.0    39    4.7   17.5   7.73 1.1848    116    1    100.0    5 
28/01/15  20:40    3.8    3.8    3.8    78    0.3  10.0     W   0.83  14.0     W    0.1    3.6   -0.1  1001.7  0.00   0.0   0.051   0.000   18.9    39    4.7   17.4   7.73 1.1851    116    1    100.0    5 
28/01/15  20:45    3.7    3.8    3.7    78    0.2   8.0     W   0.67  14.0     W    0.6    3.6    0.4  1001.5  0.00   0.0   0.051   0.000   18.9    39    4.6   17.4   7.73 1.1851    116    1    100.0    5 
28/01/15  20:50    3.7    3.7    3.7    79    0.4   8.0     W   0.67  14.0   WNW    0.5    3.5    0.3  1001.4  0.00   0.0   0.051   0.000   18.9    39    4.6   17.4   7.73 1.1851    117    1    100.0    5 
28/01/15  20:55    3.7    3.7    3.7    79    0.4   9.0     W   0.75  13.0   WNW    0.2    3.5    0.1  1001.4  0.00   0.0   0.051   0.000   18.8    39    4.6   17.3   7.73 1.1853    118    1    100.0    5 
28/01/15  21:00    3.7    3.7    3.7    79    0.4  10.0     W   0.83  15.0     W    0.0    3.6   -0.2  1001.4  0.00   0.0   0.051   0.000   18.8    39    4.6   17.3   7.73 1.1852    115    1    100.0    5 
28/01/15  21:05    3.8    3.8    3.7    80    0.7  10.0     W   0.83  18.0   WSW    0.2    3.7   -0.0  1001.3  0.00   0.0   0.050   0.000   18.8    39    4.5   17.3   7.73 1.1855    116    1    100.0    5 
28/01/15  21:10    4.0    4.0    3.8    81    1.0  11.0     W   0.92  17.0   WNW    0.1    3.8   -0.1  1001.1  0.00   0.0   0.050   0.000   18.8    39    4.5   17.3   7.73 1.1852    117    1    100.0    5 
28/01/15  21:15    4.1    4.1    4.0    81    1.1  11.0     W   0.92  17.0     W    0.3    3.9    0.1  1000.9  0.00   0.0   0.049   0.000   18.7    39    4.5   17.2   7.74 1.1852    116    1    100.0    5 
28/01/15  21:20    4.2    4.2    4.1    81    1.2  11.0     W   0.92  18.0     W    0.3    4.0    0.2  1000.8  0.00   0.0   0.049   0.000   18.7    39    4.5   17.2   7.74 1.1851    116    1    100.0    5 
28/01/15  21:25    4.3    4.3    4.2    81    1.3  10.0     W   0.83  16.0     W    0.7    4.1    0.6  1000.8  0.00   0.0   0.049   0.000   18.7    39    4.4   17.2   7.74 1.1854    117    1    100.0    5 
28/01/15  21:30    4.3    4.3    4.3    81    1.4  11.0     W   0.92  21.0     W    0.6    4.2    0.4  1000.7  0.00   0.0   0.049   0.000   18.6    39    4.4   17.1   7.74 1.1855    117    1    100.0    5 
28/01/15  21:35    4.4    4.4    4.3    81    1.4  12.0     W   1.00  19.0     W    0.4    4.2    0.2  1000.6  0.00   0.0   0.048   0.000   18.6    39    4.4   17.1   7.74 1.1854    115    1    100.0    5 
28/01/15  21:40    4.3    4.4    4.3    81    1.4  11.0     W   0.92  18.0     W    0.6    4.2    0.4  1000.5  0.00   0.0   0.049   0.000   18.6    39    4.3   17.1   7.74 1.1855    117    1    100.0    5 
28/01/15  21:45    4.3    4.3    4.3    81    1.4  10.0     W   0.83  15.0     W    0.8    4.2    0.6  1000.3  0.00   0.0   0.049   0.000   18.6    39    4.3   17.1   7.74 1.1853    116    1    100.0    5 
28/01/15  21:50    4.3    4.3    4.3    81    1.3   9.0     W   0.75  16.0     W    0.9    4.1    0.8  1000.1  0.00   0.0   0.049   0.000   18.5    39    4.3   17.0   7.74 1.1853    117    1    100.0    5 
28/01/15  21:55    4.4    4.4    4.3    82    1.6  13.0     W   1.08  19.0   WSW    0.2    4.2    0.1  1000.1  0.00   0.0   0.048   0.000   18.4    39    4.2   16.9   7.75 1.1855    116    1    100.0    5 
28/01/15  22:00    4.5    4.5    4.4    82    1.7  13.0     W   1.08  17.0     W    0.3    4.3    0.2  1000.0  0.00   0.0   0.048   0.000   18.4    39    4.2   16.9   7.75 1.1854    118    1    100.0    5 
28/01/15  22:05    4.5    4.5    4.4    82    1.7  12.0     W   1.00  19.0   WSW    0.5    4.3    0.3   999.9  0.00   0.0   0.048   0.000   18.4    38    3.8   16.8   7.55 1.1858    117    1    100.0    5 
28/01/15  22:10    4.4    4.5    4.4    81    1.4  10.0     W   0.83  16.0     W    0.8    4.2    0.7   999.8  0.00   0.0   0.048   0.000   18.4    38    3.8   16.8   7.55 1.1857    115    1    100.0    5 
28/01/15  22:15    4.3    4.4    4.3    81    1.3  11.0     W   0.92  18.0     W    0.5    4.1    0.3   999.7  0.00   0.0   0.049   0.000   18.3    38    3.8   16.8   7.55 1.1858    117    1    100.0    5 
28/01/15  22:20    4.2    4.3    4.2    81    1.2  11.0     W   0.92  20.0   WNW    0.4    4.1    0.2   999.7  0.00   0.0   0.049   0.000   18.3    38    3.8   16.8   7.55 1.1858    116    1    100.0    5 
28/01/15  22:25    4.2    4.2    4.2    81    1.2  11.0     W   0.92  19.0     W    0.3    4.0    0.2   999.5  0.00   0.0   0.049   0.000   18.3    38    3.7   16.7   7.55 1.1859    117    1    100.0    5 
28/01/15  22:30    4.1    4.2    4.1    81    1.1  10.0     W   0.83  18.0   WSW    0.5    3.9    0.3   999.5  0.00   0.0   0.049   0.000   18.3    38    3.7   16.7   7.55 1.1859    115    1    100.0    5 
28/01/15  22:35    4.1    4.1    4.1    81    1.1  10.0     W   0.83  17.0   WSW    0.4    3.9    0.3   999.3  0.00   0.0   0.050   0.000   18.2    39    4.0   16.7   7.75 1.1856    115    1    100.0    5 
28/01/15  22:40    4.1    4.1    4.1    81    1.1  11.0     W   0.92  17.0     W    0.2    3.9    0.1   999.3  0.00   0.0   0.050   0.000   18.2    38    3.7   16.6   7.55 1.1858    117    1    100.0    5 
28/01/15  22:45    4.1    4.1    4.0    81    1.1   9.0     W   0.75  16.0   WSW    0.7    3.9    0.5   999.2  0.00   0.0   0.050   0.000   18.2    39    4.0   16.7   7.74 1.1857    117    1    100.0    5 
28/01/15  22:50    4.1    4.1    4.1    82    1.3   9.0     W   0.75  14.0   WSW    0.7    3.9    0.5   999.0  0.00   0.0   0.050   0.000   18.2    39    4.0   16.7   7.74 1.1856    117    1    100.0    5 
28/01/15  22:55    4.3    4.3    4.1    83    1.7  14.0     W   1.17  21.0   WSW   -0.1    4.2   -0.2   998.8  0.00   0.0   0.049   0.000   18.1    38    3.6   16.5   7.55 1.1858    116    1    100.0    5 
28/01/15  23:00    4.6    4.6    4.3    82    1.7  16.0     W   1.33  23.0   WSW   -0.2    4.4   -0.3   998.9  0.00   0.0   0.048   0.000   18.1    38    3.5   16.4   7.55 1.1862    117    1    100.0    5 
28/01/15  23:05    4.7    4.7    4.6    82    1.9  17.0     W   1.42  24.0   WSW   -0.2    4.5   -0.3   998.8  0.00   0.0   0.047   0.000   18.1    38    3.5   16.4   7.55 1.1860    117    1    100.0    5 
28/01/15  23:10    4.7    4.8    4.7    81    1.7  15.0     W   1.25  23.0   WSW    0.2    4.6    0.1   998.7  0.00   0.0   0.047   0.000   18.0    38    3.5   16.4   7.55 1.1862    116    1    100.0    5 
28/01/15  23:15    4.7    4.8    4.7    81    1.7  13.0     W   1.08  20.0     W    0.6    4.6    0.4   998.8  0.00   0.0   0.047   0.000   18.0    38    3.5   16.4   7.55 1.1863    115    1    100.0    5 
28/01/15  23:20    4.7    4.7    4.7    81    1.7  12.0     W   1.00  19.0     W    0.8    4.6    0.6   998.6  0.00   0.0   0.047   0.000   17.9    38    3.4   16.3   7.55 1.1864    117    1    100.0    5 
28/01/15  23:25    4.7    4.7    4.7    81    1.7  13.0     W   1.08  22.0   WSW    0.6    4.6    0.4   998.5  0.00   0.0   0.047   0.000   17.9    38    3.4   16.3   7.55 1.1863    117    1    100.0    5 
28/01/15  23:30    4.7    4.7    4.7    81    1.7  14.0     W   1.17  26.0     W    0.4    4.6    0.3   998.5  0.00   0.0   0.047   0.000   17.9    38    3.4   16.3   7.55 1.1865    117    1    100.0    5 
28/01/15  23:35    4.7    4.7    4.7    81    1.7  12.0     W   1.00  21.0     W    0.7    4.5    0.6   998.3  0.00   0.0   0.047   0.000   17.8    38    3.3   16.2   7.55 1.1866    116    1    100.0    5 
28/01/15  23:40    4.6    4.7    4.6    81    1.6  12.0     W   1.00  19.0     W    0.6    4.4    0.4   998.3  0.00   0.0   0.048   0.000   17.8    38    3.3   16.2   7.55 1.1865    116    1    100.0    5 
28/01/15  23:45    4.5    4.6    4.5    81    1.5  10.0     W   0.83  18.0   WSW    0.9    4.3    0.8   998.2  0.00   0.0   0.048   0.000   17.8    38    3.3   16.2   7.55 1.1867    117    1    100.0    5 
28/01/15  23:50    4.4    4.5    4.4    81    1.5  10.0     W   0.83  15.0     W    0.9    4.3    0.7   998.2  0.00   0.0   0.048   0.000   17.8    38    3.3   16.2   7.55 1.1867    117    1    100.0    5 
28/01/15  23:55    4.4    4.4    4.4    81    1.4   9.0     W   0.75  16.0     W    1.1    4.2    0.9   998.2  0.00   0.0   0.048   0.000   17.7    38    3.2   16.1   7.55 1.1869    115    1    100.0    5 
29/01/15  00:00    4.4    4.4    4.4    82    1.6  11.0     W   0.92  17.0     W    0.6    4.2    0.4   998.0  0.00   0.0   0.048   0.000   17.7    38    3.2   16.1   7.55 1.1867    117    1    100.0    5 
29/01/15   0:05    4.4    4.4    4.4    82    1.6  12.0     W   1.00  18.0   WSW    0.4    4.3    0.3   998.0  0.00   0.0   0.048   0.000   17.7    38    3.2   16.1   7.55 1.1866    114    1    100.0    5 
29/01/15   0:10    4.4    4.4    4.4    82    1.6  11.0     W   0.92  19.0     W    0.7    4.3    0.5   997.8  0.00   0.0   0.048   0.000   17.7    38    3.2   16.1   7.55 1.1867    116    1    100.0    5 
29/01/15   0:15    4.4    4.4    4.4    82    1.6   9.0     W   0.75  18.0     W    1.1    4.2    0.9   997.7  0.00   0.0   0.048   0.000   17.7    38    3.2   16.1   7.55 1.1866    117    1    100.0    5 
29/01/15   0:20    4.3    4.4    4.3    82    1.5  10.0     W   0.83  15.0   WNW    0.8    4.2    0.6   997.6  0.00   0.0   0.049   0.000   17.6    39    3.5   16.1   7.72 1.1864    116    1    100.0    5 
29/01/15   0:25    4.3    4.4    4.3    82    1.5   9.0     W   0.75  16.0     W    1.0    4.2    0.8   997.6  0.00   0.0   0.049   0.000   17.6    39    3.4   16.0   7.72 1.1867    117    1    100.0    5 
29/01/15   0:30    4.3    4.3    4.3    82    1.5   9.0     W   0.75  16.0     W    1.0    4.2    0.8   997.5  0.00   0.0   0.049   0.000   17.6    39    3.4   16.0   7.72 1.1866    118    1    100.0    5 
29/01/15   0:35    4.3    4.3    4.3    82    1.5   9.0     W   0.75  17.0     W    1.0    4.2    0.8   997.3  0.00   0.0   0.049   0.000   17.5    39    3.4   15.9   7.72 1.1867    117    1    100.0    5 
29/01/15   0:40    4.4    4.4    4.3    83    1.8  10.0     W   0.83  17.0     W    0.8    4.3    0.7   997.2  0.00   0.0   0.048   0.000   17.5    39    3.4   15.9   7.72 1.1865    114    1    100.0    5 
29/01/15   0:45    4.4    4.4    4.4    83    1.8  10.0     W   0.83  18.0     W    0.9    4.3    0.8   997.1  0.00   0.0   0.048   0.000   17.4    39    3.3   15.9   7.72 1.1866    115    1    100.0    5 
29/01/15   0:50    4.4    4.4    4.4    82    1.6  14.0     W   1.17  23.0     W    0.0    4.2   -0.2   997.0  0.00   0.0   0.048   0.000   17.4    39    3.3   15.9   7.72 1.1865    117    1    100.0    5 
29/01/15   0:55    4.4    4.4    4.4    82    1.6  13.0     W   1.08  22.0   WSW    0.2    4.2    0.1   997.0  0.00   0.0   0.048   0.000   17.4    39    3.3   15.9   7.72 1.1865    117    1    100.0    5 
29/01/15   1:00    4.3    4.4    4.3    82    1.5  11.0     W   0.92  20.0   WSW    0.6    4.2    0.4   996.9  0.00   0.0   0.049   0.000   17.4    39    3.3   15.8   7.72 1.1866    116    1    100.0    5 
29/01/15   1:05    4.4    4.4    4.3    82    1.6  13.0     W   1.08  22.0     W    0.2    4.2    0.1   996.9  0.00   0.0   0.048   0.000   17.4    39    3.3   15.8   7.72 1.1867    117    1    100.0    5 
29/01/15   1:10    4.4    4.4    4.4    82    1.6  14.0     W   1.17  24.0     W    0.1    4.3   -0.1   996.8  0.00   0.0   0.048   0.000   17.4    39    3.3   15.8   7.72 1.1865    117    1    100.0    5 
29/01/15   1:15    4.3    4.4    4.3    82    1.5  11.0     W   0.92  20.0   WSW    0.6    4.2    0.4   996.5  0.00   0.0   0.049   0.000   17.4    39    3.3   15.8   7.72 1.1862    117    1    100.0    5 
29/01/15   1:20    4.3    4.3    4.3    82    1.5  12.0     W   1.00  20.0     W    0.3    4.1    0.1   996.5  0.00   0.0   0.049   0.000   17.4    39    3.3   15.8   7.72 1.1862    117    1    100.0    5 
29/01/15   1:25    4.2    4.3    4.2    82    1.4  11.0     W   0.92  21.0   WNW    0.3    4.0    0.2   996.4  0.00   0.0   0.049   0.000   17.4    40    3.7   15.9   7.85 1.1856    117    1    100.0    5 
29/01/15   1:30    4.1    4.2    4.1    82    1.3  10.0     W   0.83  16.0     W    0.4    3.9    0.3   996.2  0.00   0.0   0.050   0.000   17.5    40    3.7   16.0   7.85 1.1851    117    1    100.0    5 
29/01/15   1:35    3.9    4.1    3.9    82    1.1  10.0     W   0.83  21.0     W    0.3    3.8    0.1   996.1  0.00   0.0   0.050   0.000   17.5    40    3.7   16.0   7.85 1.1850    118    1    100.0    5 
29/01/15   1:40    3.9    3.9    3.9    82    1.1  10.0     W   0.83  16.0     W    0.2    3.7    0.1   995.9  0.00   0.0   0.050   0.000   17.6    40    3.8   16.1   7.85 1.1845    117    1    100.0    5 
29/01/15   1:45    3.8    3.9    3.8    82    1.0  10.0     W   0.83  19.0     W    0.2    3.7   -0.0   995.9  0.00   0.0   0.050   0.000   17.6    40    3.8   16.1   7.85 1.1844    116    1    100.0    5 
29/01/15   1:50    3.7    3.8    3.7    82    0.9   8.0     W   0.67  13.0   WNW    0.6    3.6    0.4   995.8  0.00   0.0   0.051   0.000   17.6    40    3.8   16.1   7.85 1.1840    117    1    100.0    5 
29/01/15   1:55    3.7    3.7    3.7    82    0.9   8.0     W   0.67  16.0     W    0.5    3.5    0.3   995.7  0.00   0.0   0.051   0.000   17.6    40    3.8   16.1   7.85 1.1840    115    1    100.0    5 
29/01/15   2:00    3.6    3.7    3.6    83    0.9  10.0     W   0.83  16.0     W   -0.2    3.4   -0.3   995.6  0.00   0.0   0.051   0.000   17.7    40    3.9   16.2   7.85 1.1836    117    1    100.0    5 
29/01/15   2:05    3.6    3.6    3.6    83    0.9  10.0     W   0.83  16.0     W   -0.2    3.4   -0.3   995.5  0.00   0.0   0.051   0.000   17.7    40    3.9   16.2   7.85 1.1832    116    1    100.0    5 
29/01/15   2:10    3.6    3.6    3.5    83    0.9   8.0     W   0.67  13.0   WSW    0.3    3.4    0.2   995.3  0.00   0.0   0.051   0.000   17.8    40    4.0   16.3   7.85 1.1827    116    1    100.0    5 
29/01/15   2:15    3.5    3.6    3.5    83    0.9   8.0     W   0.67  15.0    SW    0.3    3.4    0.2   995.2  0.00   0.0   0.052   0.000   17.8    40    4.0   16.3   7.85 1.1823    116    1    100.0    5 
29/01/15   2:20    3.5    3.5    3.5    83    0.9   8.0     W   0.67  13.0     W    0.3    3.4    0.2   995.1  0.00   0.0   0.052   0.000   17.9    40    4.1   16.4   7.85 1.1819    117    1    100.0    5 
29/01/15   2:25    3.6    3.6    3.5    83    0.9   9.0     W   0.75  18.0   WSW    0.1    3.4   -0.1   995.1  0.00   0.0   0.051   0.000   17.9    40    4.1   16.4   7.85 1.1817    117    1    100.0    5 
29/01/15   2:30    3.7    3.7    3.6    83    1.0  10.0     W   0.83  18.0   WSW   -0.1    3.6   -0.2   995.0  0.00   0.0   0.051   0.000   18.0    41    4.5   16.6   7.96 1.1810    117    1    100.0    5 
29/01/15   2:35    3.7    3.7    3.7    83    1.1  10.0     W   0.83  18.0     W    0.0    3.6   -0.1   994.8  0.00   0.0   0.051   0.000   18.1    41    4.6   16.6   7.96 1.1805    117    1    100.0    5 
29/01/15   2:40    3.8    3.8    3.7    83    1.2  12.0     W   1.00  18.0     W   -0.4    3.7   -0.5   994.6  0.00   0.0   0.051   0.000   18.1    41    4.6   16.7   7.96 1.1800    117    1    100.0    5 
29/01/15   2:45    3.8    3.8    3.8    82    1.0  10.0     W   0.83  17.0     W    0.1    3.6   -0.1   994.6  0.00   0.0   0.051   0.000   18.2    41    4.7   16.8   7.96 1.1797    117    1    100.0    5 
29/01/15   2:50    3.8    3.8    3.8    82    1.0  11.0     W   0.92  19.0     W   -0.1    3.7   -0.2   994.5  0.00   0.0   0.050   0.000   18.2    41    4.7   16.8   7.95 1.1794    116    1    100.0    5 
29/01/15   2:55    3.8    3.9    3.8    82    1.0   9.0     W   0.75  16.0     W    0.4    3.7    0.2   994.5  0.00   0.0   0.050   0.000   18.3    41    4.8   16.9   7.95 1.1791    116    1    100.0    5 
29/01/15   3:00    3.8    3.8    3.8    82    1.0   8.0     W   0.67  13.0     W    0.7    3.7    0.5   994.3  0.00   0.0   0.050   0.000   18.3    40    4.5   16.9   7.85 1.1789    117    1    100.0    5 
29/01/15   3:05    3.8    3.8    3.8    82    1.0   8.0     W   0.67  12.0     W    0.7    3.7    0.5   994.2  0.00   0.0   0.050   0.000   18.3    40    4.5   16.9   7.85 1.1788    117    1    100.0    5 
29/01/15   3:10    3.9    3.9    3.8    83    1.3   9.0     W   0.75  16.0     W    0.5    3.8    0.4   994.0  0.00   0.0   0.050   0.000   18.3    40    4.5   16.9   7.85 1.1786    117    1    100.0    5 
29/01/15   3:15    4.1    4.1    3.9    83    1.4   9.0     W   0.75  17.0     W    0.7    3.9    0.6   993.9  0.00   0.0   0.050   0.000   18.4    40    4.5   16.9   7.85 1.1782    116    1    100.0    5 
29/01/15   3:20    4.2    4.2    4.1    83    1.5   9.0     W   0.75  15.0     W    0.8    4.1    0.7   993.9  0.00   0.0   0.049   0.000   18.4    40    4.6   17.0   7.85 1.1779    117    1    100.0    5 
29/01/15   3:25    4.2    4.2    4.2    83    1.6   9.0     W   0.75  14.0     W    0.9    4.1    0.8   993.7  0.00   0.0   0.049   0.000   18.4    40    4.6   17.0   7.85 1.1777    117    1    100.0    5 
29/01/15   3:30    4.2    4.2    4.2    83    1.6   9.0     W   0.75  14.0     W    0.9    4.1    0.8   993.6  0.00   0.0   0.049   0.000   18.4    40    4.6   17.0   7.85 1.1776    117    1    100.0    5 
29/01/15   3:35    4.2    4.2    4.2    82    1.4   9.0     W   0.75  15.0     W    0.9    4.1    0.7   993.6  0.00   0.0   0.049   0.000   18.5    40    4.6   17.1   7.84 1.1773    116    1    100.0    5 
29/01/15   3:40    4.2    4.2    4.2    82    1.4  10.0     W   0.83  17.0     W    0.6    4.1    0.4   993.6  0.00   0.0   0.049   0.000   18.4    40    4.6   17.0   7.85 1.1775    116    1    100.0    5 
29/01/15   3:45    4.2    4.3    4.2    82    1.4  10.0     W   0.83  15.0     W    0.6    4.1    0.4   993.6  0.00   0.0   0.049   0.000   18.4    40    4.6   17.0   7.85 1.1776    116    1    100.0    5 
29/01/15   3:50    4.3    4.3    4.2    82    1.5  10.0     W   0.83  16.0   WNW    0.7    4.1    0.6   993.5  0.00   0.0   0.049   0.000   18.4    40    4.6   17.0   7.85 1.1774    117    1    100.0    5 
29/01/15   3:55    4.2    4.2    4.2    82    1.4   9.0     W   0.75  14.0     W    0.9    4.1    0.7   993.3  0.00   0.0   0.049   0.000   18.4    40    4.6   17.0   7.85 1.1772    117    1    100.0    5 
29/01/15   4:00    4.2    4.2    4.2    82    1.4   9.0     W   0.75  17.0     W    0.8    4.0    0.7   993.2  0.00   0.0   0.049   0.000   18.5    40    4.6   17.1   7.84 1.1768    117    1    100.0    5 
29/01/15   4:05    4.2    4.2    4.2    82    1.4   9.0     W   0.75  15.0   WSW    0.8    4.0    0.7   993.0  0.00   0.0   0.049   0.000   18.4    40    4.6   17.0   7.85 1.1769    116    1    100.0    5 
29/01/15   4:10    4.1    4.2    4.1    82    1.3   8.0     W   0.67  16.0     W    1.1    3.9    0.9   992.9  0.00   0.0   0.049   0.000   18.4    39    4.2   16.9   7.75 1.1769    116    1    100.0    5 
29/01/15   4:15    4.2    4.2    4.1    83    1.5  10.0     W   0.83  16.0     W    0.6    4.1    0.4   992.7  0.00   0.0   0.049   0.000   18.4    39    4.2   16.9   7.75 1.1767    116    1    100.0    5 
29/01/15   4:20    4.2    4.2    4.2    82    1.4   8.0     W   0.67  15.0     W    1.1    4.0    0.9   992.6  0.00   0.0   0.049   0.000   18.4    39    4.2   16.9   7.75 1.1766    116    1    100.0    5 
29/01/15   4:25    4.2    4.2    4.2    83    1.6   8.0     W   0.67  14.0     W    1.2    4.1    1.1   992.6  0.00   0.0   0.049   0.000   18.4    39    4.2   16.9   7.75 1.1766    116    1    100.0    5 
29/01/15   4:30    4.3    4.3    4.2    83    1.6  10.0     W   0.83  16.0     W    0.7    4.2    0.6   992.5  0.00   0.0   0.049   0.000   18.4    39    4.2   16.9   7.75 1.1764    116    1    100.0    5 
29/01/15   4:35    4.4    4.4    4.3    83    1.8  11.0     W   0.92  23.0     W    0.6    4.3    0.5   992.4  0.00   0.0   0.048   0.000   18.4    39    4.2   16.9   7.75 1.1763    117    1    100.0    5 
29/01/15   4:40    4.6    4.6    4.4    83    1.9  12.0     W   1.00  23.0   WSW    0.6    4.4    0.4   992.2  0.00   0.0   0.048   0.000   18.4    39    4.2   16.9   7.75 1.1764    117    1    100.0    5 
29/01/15   4:45    4.7    4.7    4.6    83    2.1  14.0     W   1.17  21.0     W    0.4    4.6    0.3   992.2  0.00   0.0   0.047   0.000   18.4    39    4.2   16.9   7.75 1.1764    115    1    100.0    5 
29/01/15   4:50    4.8    4.8    4.7    83    2.1  13.0     W   1.08  20.0   WSW    0.7    4.7    0.6   991.9  0.00   0.0   0.047   0.000   18.3    39    4.1   16.8   7.75 1.1763    118    1    100.0    5 
29/01/15   4:55    4.8    4.8    4.8    83    2.1  11.0     W   0.92  18.0     W    1.1    4.7    0.9   991.8  0.00   0.0   0.047   0.000   18.3    39    4.1   16.8   7.75 1.1762    117    1    100.0    5 
29/01/15   5:00    4.7    4.8    4.7    82    1.9  10.0     W   0.83  16.0     W    1.2    4.6    1.1   991.8  0.00   0.0   0.047   0.000   18.3    39    4.1   16.8   7.75 1.1762    117    1    100.0    5 
29/01/15   5:05    4.7    4.7    4.7    82    1.9  10.0     W   0.83  16.0   WNW    1.2    4.6    1.1   991.6  0.00   0.0   0.047   0.000   18.3    39    4.1   16.8   7.75 1.1760    116    1    100.0    5 
29/01/15   5:10    4.8    4.8    4.7    83    2.1  11.0     W   0.92  16.0     W    1.1    4.7    0.9   991.5  0.00   0.0   0.047   0.000   18.3    39    4.1   16.8   7.75 1.1760    117    1    100.0    5 
29/01/15   5:15    4.8    4.8    4.8    83    2.2  13.0     W   1.08  22.0   WSW    0.7    4.7    0.6   991.5  0.00   0.0   0.047   0.000   18.3    39    4.1   16.8   7.75 1.1761    117    1    100.0    5 
29/01/15   5:20    4.8    4.8    4.8    83    2.2  14.0     W   1.17  23.0   WSW    0.6    4.7    0.4   991.4  0.00   0.0   0.047   0.000   18.2    39    4.0   16.7   7.75 1.1762    117    1    100.0    5 
29/01/15   5:25    4.9    4.9    4.8    82    2.1  14.0     W   1.17  22.0   WSW    0.6    4.7    0.4   991.3  0.00   0.0   0.047   0.000   18.2    39    4.0   16.7   7.75 1.1760    115    1    100.0    5 
29/01/15   5:30    4.8    4.9    4.8    83    2.2   9.0     W   0.75  15.0     W    1.6    4.7    1.5   991.2  0.00   0.0   0.047   0.000   18.2    39    4.0   16.7   7.74 1.1762    116    1    100.0    5 
29/01/15   5:35    4.8    4.8    4.8    83    2.1   8.0     W   0.67  14.0     W    1.8    4.7    1.7   991.0  0.00   0.0   0.047   0.000   18.2    39    4.0   16.7   7.74 1.1759    116    1    100.0    5 
29/01/15   5:40    4.8    4.8    4.7    83    2.1   9.0     W   0.75  16.0     W    1.6    4.7    1.4   991.0  0.00   0.0   0.047   0.000   18.2    39    4.0   16.7   7.74 1.1759    117    1    100.0    5 
29/01/15   5:45    4.7    4.8    4.7    83    2.1  10.0     W   0.83  16.0     W    1.2    4.6    1.1   990.8  0.00   0.0   0.047   0.000   18.2    38    3.6   16.6   7.55 1.1760    117    1    100.0    5 
29/01/15   5:50    4.7    4.7    4.7    83    2.1   9.0     W   0.75  19.0     W    1.5    4.6    1.4   990.7  0.00   0.0   0.047   0.000   18.1    38    3.6   16.5   7.55 1.1762    117    1    100.0    5 
29/01/15   5:55    4.7    4.7    4.7    84    2.2   9.0     W   0.75  15.0   WSW    1.5    4.6    1.4   990.6  0.00   0.0   0.047   0.000   18.1    38    3.6   16.5   7.55 1.1759    117    1    100.0    5 
29/01/15   6:00    4.7    4.8    4.7    84    2.2  11.0     W   0.92  16.0   WSW    1.0    4.6    0.9   990.5  0.00   0.0   0.047   0.000   18.1    38    3.6   16.5   7.55 1.1758    115    1    100.0    5 
29/01/15   6:05    4.8    4.8    4.7    83    2.1  12.0     W   1.00  18.0     W    0.8    4.7    0.7   990.4  0.00   0.0   0.047   0.000   18.1    38    3.5   16.4   7.55 1.1760    117    1    100.0    5 
29/01/15   6:10    4.8    4.8    4.8    83    2.1  11.0     W   0.92  17.0     W    1.1    4.7    0.9   990.2  0.00   0.0   0.047   0.000   18.0    38    3.5   16.4   7.55 1.1760    116    1    100.0    5 
29/01/15   6:15    4.7    4.8    4.7    83    2.1  10.0     W   0.83  16.0     W    1.2    4.6    1.1   990.0  0.00   0.0   0.047   0.000   18.0    38    3.5   16.4   7.55 1.1758    117    1    100.0    5 
29/01/15   6:20    4.8    4.8    4.7    83    2.1  10.0     W   0.83  16.0   WSW    1.3    4.7    1.2   989.9  0.00   0.0   0.047   0.000   18.0    38    3.5   16.4   7.55 1.1757    117    1    100.0    5 
29/01/15   6:25    4.8    4.8    4.7    83    2.1   9.0     W   0.75  15.0     W    1.6    4.7    1.4   989.9  0.00   0.0   0.047   0.000   17.9    38    3.4   16.3   7.55 1.1759    116    1    100.0    5 
29/01/15   6:30    4.8    4.8    4.8    83    2.1   8.0     W   0.67  12.0     W    1.8    4.7    1.7   989.8  0.00   0.0   0.047   0.000   17.9    38    3.4   16.3   7.55 1.1759    117    1    100.0    5 
29/01/15   6:35    4.8    4.8    4.8    82    2.0   8.0     W   0.67  13.0   WSW    1.8    4.6    1.7   989.7  0.00   0.0   0.047   0.000   17.9    38    3.4   16.3   7.55 1.1757    117    1    100.0    5 
29/01/15   6:40    4.8    4.8    4.8    82    2.0  10.0     W   0.83  16.0     W    1.3    4.6    1.1   989.5  0.00   0.0   0.047   0.000   17.9    38    3.4   16.3   7.55 1.1755    116    1    100.0    5 
29/01/15   6:45    4.8    4.8    4.8    82    2.0   8.0     W   0.67  16.0   WNW    1.9    4.7    1.7   989.3  0.00   0.0   0.047   0.000   17.9    38    3.4   16.3   7.55 1.1752    117    1    100.0    5 
29/01/15   6:50    4.9    4.9    4.8    81    1.9   9.0     W   0.75  15.0   WSW    1.7    4.7    1.6   989.2  0.00   0.0   0.047   0.000   17.9    38    3.4   16.3   7.55 1.1753    116    1    100.0    5 
29/01/15   6:55    4.9    4.9    4.9    81    1.9   7.0     W   0.58  15.0     W    2.3    4.7    2.1   989.0  0.00   0.0   0.047   0.000   17.9    39    3.8   16.4   7.74 1.1746    117    1    100.0    5 
29/01/15   7:00    4.9    4.9    4.9    81    2.0   9.0     W   0.75  15.0     W    1.8    4.8    1.6   988.9  0.00   0.0   0.046   0.000   17.9    39    3.8   16.4   7.74 1.1744    117    1    100.0    5 
29/01/15   7:05    5.0    5.0    4.9    81    2.0   9.0     W   0.75  14.0     W    1.8    4.8    1.7   988.7  0.00   0.0   0.046   0.000   18.0    39    3.8   16.4   7.74 1.1740    117    1    100.0    5 
29/01/15   7:10    5.1    5.2    5.0    81    2.1   7.0     W   0.58  10.0   WNW    2.5    4.9    2.3   988.6  0.00   0.0   0.046   0.000   18.0    39    3.8   16.4   7.74 1.1739    115    1    100.0    5 
29/01/15   7:15    5.3    5.3    5.2    81    2.3   8.0     W   0.67  14.0     W    2.4    5.1    2.3   988.6  0.00   0.0   0.045   0.000   18.0    39    3.8   16.4   7.74 1.1739    117    1    100.0    5 
29/01/15   7:20    5.3    5.3    5.3    81    2.3   8.0     W   0.67  13.0   WNW    2.5    5.2    2.3   988.5  0.00   0.0   0.045   0.000   18.0    39    3.8   16.4   7.74 1.1738    117    1    100.0    5 
29/01/15   7:25    5.4    5.4    5.3    81    2.4   8.0     W   0.67  13.0     W    2.6    5.2    2.4   988.3  0.00   0.0   0.045   0.000   18.0    39    3.8   16.4   7.74 1.1735    117    1    100.0    5 
29/01/15   7:30    5.7    5.7    5.4    81    2.7   9.0     W   0.75  16.0   WSW    2.6    5.5    2.4   988.2  0.00   0.0   0.044   0.000   18.0    39    3.8   16.4   7.74 1.1734    116    1    100.0    5 
29/01/15   7:35    5.9    5.9    5.7    80    2.7   9.0     W   0.75  17.0   WSW    2.9    5.7    2.7   988.0  0.00   0.0   0.043   0.000   18.0    39    3.8   16.4   7.74 1.1732    117    1    100.0    5 
29/01/15   7:40    6.1    6.1    5.9    79    2.7  11.0     W   0.92  18.0   WNW    2.6    5.9    2.4   987.9  0.00   0.0   0.043   0.000   18.0    39    3.8   16.4   7.74 1.1731    117    1    100.0    5 
29/01/15   7:45    6.2    6.2    6.1    78    2.6  10.0     W   0.83  16.0   WNW    2.9    6.0    2.7   987.8  0.00   0.0   0.042   0.000   18.1    39    3.9   16.5   7.74 1.1727    117    1    100.0    5 
29/01/15   7:50    6.3    6.3    6.2    79    2.9  12.0     W   1.00  18.0     W    2.6    6.1    2.4   987.8  0.00   0.0   0.042   0.000   18.1    39    3.9   16.5   7.74 1.1726    117    1    100.0    5 
29/01/15   7:55    6.4    6.4    6.3    79    3.1  12.0     W   1.00  18.0   WSW    2.8    6.3    2.6   987.7  0.00   0.0   0.041   0.000   18.1    39    3.9   16.5   7.74 1.1726    117    1    100.0    5 
29/01/15   8:00    6.4    6.6    6.4    79    3.1  14.0     W   1.17  22.0   WSW    2.4    6.3    2.2   987.6  0.00   0.0   0.041   0.000   18.1    39    3.9   16.5   7.74 1.1725    116    1    100.0    5 
29/01/15   8:05    6.2    6.4    6.2    79    2.8  13.0     W   1.08  20.0     W    2.3    6.1    2.1   987.6  0.00   0.0   0.042   0.000   18.1    39    3.9   16.5   7.74 1.1724    116    1    100.0    5 
29/01/15   8:10    6.1    6.2    6.1    79    2.7  13.0     W   1.08  20.0   WSW    2.2    5.9    2.0   987.5  0.00   0.0   0.042   0.000   18.1    39    3.9   16.5   7.74 1.1723    115    1    100.0    5 
29/01/15   8:15    6.1    6.1    6.1    80    2.9  12.0     W   1.00  18.0     W    2.4    5.9    2.2   987.3  0.00   0.0   0.042   0.000   18.1    39    3.9   16.5   7.74 1.1720    116    1    100.0    5 
29/01/15   8:20    6.0    6.1    6.0    81    3.0  13.0   WSW   1.08  20.0   WSW    2.1    5.8    1.9   987.1  0.00   0.0   0.043   0.000   18.1    39    3.9   16.5   7.74 1.1719    117    1    100.0    5 
29/01/15   8:25    5.9    6.0    5.9    82    3.0  13.0   WSW   1.08  20.0   WSW    1.9    5.8    1.8   987.0  0.00   0.0   0.043   0.000   18.1    39    3.9   16.5   7.74 1.1717    117    1    100.0    5 
29/01/15   8:30    5.9    5.9    5.8    82    3.0  13.0   WSW   1.08  19.0   WSW    1.9    5.8    1.8   986.9  0.00   0.0   0.043   0.000   18.1    39    3.9   16.5   7.74 1.1715    115    1    100.0    5 
29/01/15   8:35    6.2    6.2    5.9    83    3.5  13.0   WSW   1.08  17.0   WSW    2.2    6.1    2.1   986.6  0.00   0.0   0.042   0.000   18.0    39    3.8   16.4   7.74 1.1715    116    1    100.0    5 
29/01/15   8:40    6.3    6.3    6.2    82    3.4  14.0   WSW   1.17  20.0   WSW    2.2    6.2    2.1   986.5  0.00   0.0   0.042   0.000   18.1    39    3.9   16.5   7.74 1.1711    117    1    100.0    5 
29/01/15   8:45    6.4    6.4    6.3    82    3.5  15.0   WSW   1.25  21.0     W    2.1    6.3    2.0   986.4  0.00   0.0   0.041   0.000   18.1    39    3.9   16.5   7.74 1.1710    117    1    100.0    5 
29/01/15   8:50    6.4    6.5    6.4    81    3.4  15.0   WSW   1.25  19.0     W    2.2    6.3    2.1   986.4  0.00   0.0   0.041   0.000   18.1    39    3.9   16.5   7.74 1.1710    115    1    100.0    5 
29/01/15   8:55    6.3    6.4    6.3    81    3.3  13.0   WSW   1.08  19.0   WSW    2.4    6.2    2.3   986.4  0.00   0.0   0.042   0.000   18.1    39    3.9   16.5   7.74 1.1710    117    1    100.0    5 
29/01/15   9:00    6.3    6.3    6.2    81    3.3  14.0     W   1.17  21.0     W    2.2    6.2    2.1   986.4  0.00   0.0   0.042   0.000   18.1    39    3.9   16.5   7.74 1.1710    117    1    100.0    5 
29/01/15   9:05    6.7    6.7    6.3    81    3.6  14.0   WSW   1.17  21.0   WSW    2.6    6.6    2.5   986.2  0.00   0.0   0.041   0.000   18.1    40    4.2   16.6   7.85 1.1705    118    1    100.0    5 
29/01/15   9:10    6.5    6.7    6.5    80    3.3  15.0   WSW   1.25  21.0     W    2.2    6.4    2.1   986.0  0.00   0.0   0.041   0.000   18.1    40    4.3   16.7   7.85 1.1700    117    1    100.0    5 
29/01/15   9:15    6.4    6.5    6.4    81    3.4  16.0   WSW   1.33  21.0   WSW    2.0    6.3    1.9   985.9  0.00   0.0   0.041   0.000   18.1    40    4.3   16.7   7.85 1.1699    117    1    100.0    5 
29/01/15   9:20    6.5    6.5    6.4    80    3.3  14.0     W   1.17  22.0   WSW    2.4    6.4    2.3   985.7  0.00   0.0   0.041   0.000   18.1    40    4.3   16.7   7.85 1.1697    114    1    100.0    5 
29/01/15   9:25    6.3    6.5    6.3    80    3.1  14.0   WSW   1.17  19.0     W    2.2    6.1    2.0   985.5  0.00   0.0   0.042   0.000   18.1    40    4.3   16.7   7.85 1.1695    116    1    100.0    5 
29/01/15   9:30    6.3    6.3    6.2    81    3.3  14.0     W   1.17  19.0     W    2.2    6.2    2.1   985.3  0.00   0.0   0.042   0.000   18.2    40    4.3   16.7   7.85 1.1689    116    1    100.0    5 
29/01/15   9:35    6.5    6.5    6.3    81    3.5  13.0     W   1.08  18.0     W    2.6    6.4    2.5   985.0  0.00   0.0   0.041   0.000   18.2    40    4.3   16.7   7.85 1.1686    117    1    100.0    5 
29/01/15   9:40    6.7    6.7    6.5    80    3.5  12.0   WSW   1.00  18.0     W    3.1    6.6    2.9   984.8  0.00   0.0   0.040   0.000   18.2    40    4.3   16.7   7.85 1.1683    117    1    100.0    5 
29/01/15   9:45    6.7    6.8    6.7    80    3.5  13.0     W   1.08  19.0     W    2.8    6.6    2.7   984.7  0.00   0.0   0.040   0.000   18.2    40    4.3   16.7   7.85 1.1682    117    1    100.0    5 
29/01/15   9:50    6.6    6.8    6.6    80    3.4  13.0     W   1.08  18.0     W    2.7    6.5    2.6   984.6  0.00   0.0   0.041   0.000   18.2    40    4.3   16.7   7.85 1.1680    116    1    100.0    5 
29/01/15   9:55    6.5    6.6    6.5    81    3.5  12.0     W   1.00  16.0   WSW    2.8    6.4    2.7   984.4  0.00   0.0   0.041   0.000   18.2    40    4.4   16.8   7.85 1.1676    116    1    100.0    5 
29/01/15  10:00    6.5    6.5    6.4    80    3.3  12.0     W   1.00  19.0   WSW    2.8    6.4    2.7   984.3  0.00   0.0   0.041   0.000   18.2    40    4.4   16.8   7.85 1.1675    116    1    100.0    5 
29/01/15  10:05    6.7    6.7    6.5    80    3.5  12.0     W   1.00  20.0   WSW    3.0    6.6    2.9   984.2  0.00   0.0   0.041   0.000   18.2    40    4.4   16.8   7.85 1.1673    116    1    100.0    5 
29/01/15  10:10    6.6    6.7    6.6    78    3.0  12.0     W   1.00  20.0   WSW    2.9    6.4    2.7   984.0  0.00   0.0   0.041   0.000   18.2    40    4.4   16.8   7.85 1.1670    117    1    100.0    5 
29/01/15  10:15    6.6    6.6    6.6    78    3.0  11.0     W   0.92  20.0   WSW    3.2    6.4    3.0   983.9  0.00   0.0   0.041   0.000   18.2    40    4.4   16.8   7.85 1.1669    117    1    100.0    5 
29/01/15  10:20    6.7    6.7    6.6    80    3.5  13.0   WSW   1.08  21.0   WSW    2.8    6.6    2.7   983.6  0.00   0.0   0.041   0.000   18.3    40    4.4   16.8   7.85 1.1664    116    1    100.0    5 
29/01/15  10:25    6.6    6.7    6.6    79    3.2  15.0     W   1.25  22.0   WSW    2.4    6.5    2.3   983.6  0.00   0.0   0.041   0.000   18.2    40    4.4   16.8   7.85 1.1666    116    1    100.0    5 
29/01/15  10:30    6.5    6.6    6.5    78    2.9  16.0     W   1.33  22.0     W    2.1    6.3    1.9   983.5  0.00   0.0   0.041   0.000   18.3    40    4.4   16.8   7.85 1.1663    116    1    100.0    5 
29/01/15  10:35    6.4    6.5    6.4    78    2.8  13.0     W   1.08  22.0     W    2.5    6.2    2.3   983.3  0.00   0.0   0.041   0.000   18.2    40    4.4   16.8   7.85 1.1663    117    1    100.0    5 
29/01/15  10:40    6.3    6.4    6.3    77    2.5  12.0     W   1.00  20.0     W    2.6    6.1    2.4   983.1  0.00   0.0   0.042   0.000   18.3    39    4.1   16.8   7.75 1.1661    116    1    100.0    5 
29/01/15  10:45    6.2    6.3    6.2    77    2.4  13.0     W   1.08  20.0   WSW    2.2    5.9    2.0   983.0  0.00   0.0   0.042   0.000   18.3    39    4.1   16.8   7.75 1.1659    116    1    100.0    5 
29/01/15  10:50    6.2    6.2    6.2    78    2.6  11.0     W   0.92  19.0     W    2.7    6.0    2.5   982.9  0.00   0.0   0.042   0.000   18.3    39    4.1   16.8   7.75 1.1658    116    1    100.0    5 
29/01/15  10:55    6.2    6.2    6.2    78    2.6  12.0     W   1.00  18.0     W    2.4    6.0    2.3   982.7  0.00   0.0   0.042   0.000   18.3    39    4.1   16.8   7.75 1.1656    116    1    100.0    5 
29/01/15  11:00    6.0    6.2    6.0    81    3.0  14.0     W   1.17  22.0   WSW    1.9    5.8    1.7   982.6  0.00   0.0   0.043   0.000   18.3    39    4.1   16.8   7.75 1.1654    116    1    100.0    5 
29/01/15  11:05    5.8    6.0    5.8    81    2.8  12.0     W   1.00  21.0     W    2.0    5.6    1.8   982.2  0.00   0.0   0.044   0.000   18.2    39    4.0   16.7   7.75 1.1652    116    1    100.0    5 
29/01/15  11:10    5.7    5.8    5.7    81    2.7  10.0     W   0.83  15.0   WNW    2.4    5.6    2.2   982.0  0.00   0.0   0.044   0.000   18.2    39    4.0   16.7   7.75 1.1650    117    1    100.0    5 
29/01/15  11:15    5.8    5.8    5.7    82    2.9   8.0     W   0.67  15.0     W    3.1    5.7    2.9   981.9  0.00   0.0   0.044   0.000   18.2    39    4.0   16.7   7.75 1.1648    117    1    100.0    5 
29/01/15  11:20    5.8    5.8    5.8    82    2.9   9.0     W   0.75  14.0     W    2.7    5.7    2.6   981.6  0.00   0.0   0.044   0.000   18.2    39    4.0   16.7   7.75 1.1645    114    1    100.0    5 
29/01/15  11:25    5.8    5.8    5.8    82    3.0   8.0     W   0.67  13.0     W    3.1    5.7    3.0   981.5  0.00   0.0   0.043   0.000   18.2    39    4.0   16.7   7.75 1.1644    117    1    100.0    5 
29/01/15  11:30    6.1    6.1    5.8    82    3.2   8.0     W   0.67  10.0     W    3.4    5.9    3.3   981.3  0.00   0.0   0.043   0.000   18.2    39    4.0   16.7   7.75 1.1641    115    1    100.0    5 
29/01/15  11:35    6.2    6.2    6.1    82    3.4   8.0     W   0.67  13.0   WNW    3.6    6.1    3.4   981.1  0.00   0.0   0.042   0.000   18.2    39    4.0   16.7   7.75 1.1639    115    1    100.0    5 
29/01/15  11:40    6.3    6.3    6.2    81    3.3   7.0     W   0.58  11.0   WSW    4.1    6.2    3.9   980.9  0.00   0.0   0.042   0.000   18.2    39    4.0   16.7   7.75 1.1636    116    1    100.0    5 
29/01/15  11:45    6.7    6.7    6.3    82    3.8   7.0     W   0.58  11.0     W    4.4    6.6    4.3   980.8  0.00   0.0   0.041   0.000   18.2    39    4.0   16.7   7.75 1.1635    117    1    100.0    5 
29/01/15  11:50    6.8    6.8    6.7    81    3.8   6.0     W   0.50  11.0   WNW    4.9    6.7    4.8   980.7  0.00   0.0   0.040   0.000   18.2    39    4.0   16.7   7.75 1.1634    116    1    100.0    5 
29/01/15  11:55    6.7    6.9    6.7    81    3.6   8.0   WNW   0.67  15.0     W    4.1    6.6    4.0   980.8  0.00   0.0   0.041   0.000   18.2    39    4.0   16.7   7.75 1.1635    116    1    100.0    5 
29/01/15  12:00    5.6    6.7    5.6    80    2.4  13.0     W   1.08  29.0   WSW    1.6    5.4    1.4   980.6  0.20   0.0   0.044   0.000   18.2    39    4.0   16.7   7.75 1.1633    117    1    100.0    5 
29/01/15  12:05    4.3    5.6    4.3    83    1.7  15.0     W   1.25  29.0   WSW   -0.2    4.2   -0.3   980.5  0.20   2.4   0.049   0.000   18.2    39    4.0   16.7   7.75 1.1632    116    1    100.0    5 
89818